ETH3228 GOBD-SKBO
Flight info
| Callsign | ETH3228 |
|---|---|
| Flight time | 7h 54m |
| Altitude | 34000 |
| Route | 14N020W DCT BORTA DCT ONOBI DCT AMDOL DCT KEPAS DCT 14N040W DCT IRAXI DCT ASALI DCT PIPUV DCT GNA DCT ITADI DCT SIRUG SIRUG5E |
| Aircraft | B77L/H-SDE1E2E3FGHIJ2J3J4J5M1RWXY/LB1D1 |
Departure
| Time | 2026-04-21 14:17 |
|---|---|
| Airport | Blaise Diagne International Airport (GOBD) |
Arrival
| Time | 2026-04-21 22:12 |
|---|---|
| Airport | El Dorado International Airport (SKBO) |
| Time | Latitude | Longitude | Altitude | Speed | Heading |
|---|---|---|---|---|---|
| 2026-04-21 13:52 | 14.65584 | -17.07698 | 279 ft | 0 kts | 270° |
| 2026-04-21 14:09 | 14.65584 | -17.07687 | 282 ft | 4 kts | 268° |
| 2026-04-21 14:09 | 14.65586 | -17.07659 | 276 ft | 4 kts | 265° |
| 2026-04-21 14:09 | 14.65586 | -17.07632 | 274 ft | 4 kts | 287° |
| 2026-04-21 14:09 | 14.65583 | -17.07618 | 273 ft | 5 kts | 341° |
| 2026-04-21 14:10 | 14.65565 | -17.07609 | 275 ft | 5 kts | 334° |
| 2026-04-21 14:10 | 14.65544 | -17.07602 | 273 ft | 2 kts | 325° |
| 2026-04-21 14:10 | 14.65531 | -17.07587 | 273 ft | 3 kts | 292° |
| 2026-04-21 14:10 | 14.65522 | -17.07564 | 272 ft | 4 kts | 282° |
| 2026-04-21 14:11 | 14.65519 | -17.07537 | 272 ft | 4 kts | 268° |
| 2026-04-21 14:11 | 14.65522 | -17.07509 | 274 ft | 4 kts | 259° |
| 2026-04-21 14:11 | 14.65526 | -17.07482 | 274 ft | 4 kts | 271° |
| 2026-04-21 14:11 | 14.65525 | -17.07454 | 272 ft | 4 kts | 270° |
| 2026-04-21 14:12 | 14.65526 | -17.07427 | 272 ft | 4 kts | 269° |
| 2026-04-21 14:12 | 14.65526 | -17.07399 | 272 ft | 4 kts | 269° |
| 2026-04-21 14:12 | 14.65527 | -17.07371 | 271 ft | 4 kts | 267° |
| 2026-04-21 14:12 | 14.65529 | -17.07343 | 271 ft | 4 kts | 262° |
| 2026-04-21 14:13 | 14.65534 | -17.07316 | 272 ft | 4 kts | 255° |
| 2026-04-21 14:13 | 14.65542 | -17.07290 | 269 ft | 4 kts | 242° |
| 2026-04-21 14:13 | 14.65558 | -17.07270 | 270 ft | 4 kts | 195° |
| 2026-04-21 14:13 | 14.65564 | -17.07268 | 269 ft | 2 kts | 179° |
| 2026-04-21 14:14 | 14.65554 | -17.07263 | 269 ft | 5 kts | 149° |
| 2026-04-21 14:15 | 14.65530 | -17.07198 | 268 ft | 13 kts | 93° |
| 2026-04-21 14:15 | 14.65536 | -17.07109 | 269 ft | 13 kts | 64° |
| 2026-04-21 14:15 | 14.65607 | -17.07110 | 269 ft | 13 kts | 301° |
| 2026-04-21 14:15 | 14.65619 | -17.07199 | 269 ft | 13 kts | 274° |
| 2026-04-21 14:16 | 14.65662 | -17.07266 | 268 ft | 9 kts | 349° |
| 2026-04-21 14:16 | 14.65669 | -17.07267 | 268 ft | 0 kts | 354° |
| 2026-04-21 14:16 | 14.65725 | -17.07270 | 268 ft | 32 kts | 358° |
| 2026-04-21 14:16 | 14.66185 | -17.07273 | 267 ft | 97 kts | 360° |
| 2026-04-21 14:17 | 14.67049 | -17.07282 | 272 ft | 149 kts | 359° |
| 2026-04-21 14:17 | 14.68221 | -17.07291 | 384 ft | 177 kts | 359° |
| 2026-04-21 14:17 | 14.69425 | -17.07328 | 949 ft | 172 kts | 358° |
| 2026-04-21 14:17 | 14.70610 | -17.07346 | 1595 ft | 169 kts | 0° |
| 2026-04-21 14:18 | 14.71805 | -17.07363 | 2120 ft | 178 kts | 359° |
| 2026-04-21 14:18 | 14.73126 | -17.07386 | 2313 ft | 201 kts | 359° |
| 2026-04-21 14:18 | 14.74591 | -17.07404 | 2460 ft | 226 kts | 359° |
| 2026-04-21 14:18 | 14.76238 | -17.07437 | 2782 ft | 245 kts | 359° |
| 2026-04-21 14:19 | 14.77972 | -17.07529 | 3318 ft | 255 kts | 349° |
| 2026-04-21 14:19 | 14.79596 | -17.08324 | 3885 ft | 266 kts | 319° |
| 2026-04-21 14:19 | 14.80668 | -17.09886 | 4574 ft | 273 kts | 291° |
| 2026-04-21 14:19 | 14.80953 | -17.11835 | 5250 ft | 279 kts | 268° |
| 2026-04-21 14:20 | 14.80615 | -17.13825 | 5902 ft | 284 kts | 255° |
| 2026-04-21 14:20 | 14.80074 | -17.15806 | 6541 ft | 289 kts | 253° |
| 2026-04-21 14:20 | 14.79514 | -17.17775 | 7244 ft | 290 kts | 253° |
| 2026-04-21 14:20 | 14.78943 | -17.19771 | 7987 ft | 290 kts | 253° |
| 2026-04-21 14:21 | 14.78367 | -17.21775 | 8605 ft | 293 kts | 253° |
| 2026-04-21 14:21 | 14.77789 | -17.23812 | 9185 ft | 297 kts | 253° |
| 2026-04-21 14:21 | 14.77212 | -17.25869 | 9843 ft | 298 kts | 253° |
| 2026-04-21 14:21 | 14.76635 | -17.27943 | 10424 ft | 305 kts | 253° |
| 2026-04-21 14:22 | 14.76029 | -17.30125 | 10584 ft | 327 kts | 253° |
| 2026-04-21 14:22 | 14.75386 | -17.32457 | 10748 ft | 348 kts | 253° |
| 2026-04-21 14:22 | 14.74710 | -17.34894 | 10930 ft | 368 kts | 253° |
| 2026-04-21 14:22 | 14.73996 | -17.37476 | 11410 ft | 379 kts | 253° |
| 2026-04-21 14:23 | 14.73269 | -17.40107 | 12136 ft | 383 kts | 253° |
| 2026-04-21 14:23 | 14.72538 | -17.42761 | 12928 ft | 385 kts | 253° |
| 2026-04-21 14:23 | 14.71803 | -17.45425 | 13750 ft | 387 kts | 253° |
| 2026-04-21 14:23 | 14.71064 | -17.48100 | 14542 ft | 388 kts | 253° |
| 2026-04-21 14:24 | 14.70322 | -17.50790 | 15327 ft | 390 kts | 253° |
| 2026-04-21 14:24 | 14.69587 | -17.53455 | 16030 ft | 393 kts | 254° |
| 2026-04-21 14:24 | 14.68836 | -17.56176 | 16733 ft | 395 kts | 254° |
| 2026-04-21 14:24 | 14.68080 | -17.58911 | 17435 ft | 397 kts | 254° |
| 2026-04-21 14:25 | 14.67320 | -17.61660 | 18146 ft | 399 kts | 254° |
| 2026-04-21 14:25 | 14.66556 | -17.64422 | 18808 ft | 401 kts | 254° |
| 2026-04-21 14:25 | 14.66134 | -17.65945 | 19154 ft | 403 kts | 254° |
| 2026-04-21 14:25 | 14.65880 | -17.66862 | 19340 ft | 404 kts | 254° |
| 2026-04-21 14:26 | 14.65862 | -17.66925 | 19358 ft | 404 kts | 254° |
| 2026-04-21 14:26 | 14.65393 | -17.68619 | 19690 ft | 407 kts | 255° |
| 2026-04-21 14:26 | 14.64621 | -17.71406 | 20206 ft | 411 kts | 255° |
| 2026-04-21 14:26 | 14.63831 | -17.74257 | 20746 ft | 415 kts | 255° |
| 2026-04-21 14:27 | 14.63035 | -17.77129 | 21266 ft | 418 kts | 255° |
| 2026-04-21 14:27 | 14.62233 | -17.80023 | 21751 ft | 421 kts | 255° |
| 2026-04-21 14:27 | 14.61422 | -17.82946 | 22211 ft | 425 kts | 256° |
| 2026-04-21 14:27 | 14.60605 | -17.85887 | 22703 ft | 427 kts | 256° |
| 2026-04-21 14:28 | 14.59783 | -17.88846 | 23146 ft | 430 kts | 256° |
| 2026-04-21 14:28 | 14.58954 | -17.91828 | 23558 ft | 434 kts | 256° |
| 2026-04-21 14:28 | 14.58130 | -17.94789 | 23957 ft | 436 kts | 256° |
| 2026-04-21 14:28 | 14.57292 | -17.97804 | 24365 ft | 439 kts | 257° |
| 2026-04-21 14:29 | 14.56446 | -18.00840 | 24760 ft | 441 kts | 257° |
| 2026-04-21 14:29 | 14.55595 | -18.03893 | 25145 ft | 444 kts | 257° |
| 2026-04-21 14:29 | 14.54739 | -18.06963 | 25515 ft | 446 kts | 257° |
| 2026-04-21 14:29 | 14.53880 | -18.10046 | 25885 ft | 448 kts | 257° |
| 2026-04-21 14:30 | 14.53017 | -18.13141 | 26242 ft | 450 kts | 257° |
| 2026-04-21 14:30 | 14.52148 | -18.16252 | 26576 ft | 452 kts | 257° |
| 2026-04-21 14:30 | 14.51274 | -18.19379 | 26922 ft | 454 kts | 257° |
| 2026-04-21 14:30 | 14.50397 | -18.22518 | 27266 ft | 456 kts | 257° |
| 2026-04-21 14:31 | 14.49527 | -18.25628 | 27606 ft | 458 kts | 257° |
| 2026-04-21 14:31 | 14.48641 | -18.28795 | 27925 ft | 460 kts | 257° |
| 2026-04-21 14:31 | 14.47750 | -18.31974 | 28246 ft | 462 kts | 257° |
| 2026-04-21 14:31 | 14.46857 | -18.35163 | 28562 ft | 464 kts | 257° |
| 2026-04-21 14:32 | 14.45959 | -18.38365 | 28874 ft | 465 kts | 257° |
| 2026-04-21 14:32 | 14.45059 | -18.41576 | 29169 ft | 467 kts | 257° |
| 2026-04-21 14:32 | 14.44157 | -18.44798 | 29433 ft | 469 kts | 257° |
| 2026-04-21 14:32 | 14.43248 | -18.48034 | 29682 ft | 471 kts | 257° |
| 2026-04-21 14:33 | 14.42347 | -18.51238 | 29934 ft | 472 kts | 257° |
| 2026-04-21 14:33 | 14.41431 | -18.54488 | 30301 ft | 471 kts | 257° |
| 2026-04-21 14:33 | 14.40520 | -18.57721 | 30757 ft | 468 kts | 257° |
| 2026-04-21 14:33 | 14.39615 | -18.60932 | 31230 ft | 464 kts | 257° |
| 2026-04-21 14:34 | 14.38717 | -18.64118 | 31709 ft | 461 kts | 257° |
| 2026-04-21 14:34 | 14.37825 | -18.67283 | 32144 ft | 458 kts | 257° |
| 2026-04-21 14:34 | 14.36939 | -18.70430 | 32554 ft | 456 kts | 256° |
| 2026-04-21 14:34 | 14.36056 | -18.73563 | 32968 ft | 454 kts | 256° |
| 2026-04-21 14:35 | 14.35177 | -18.76676 | 33403 ft | 451 kts | 256° |
| 2026-04-21 14:35 | 14.34302 | -18.79771 | 33806 ft | 448 kts | 256° |
| 2026-04-21 14:35 | 14.33441 | -18.82818 | 33924 ft | 450 kts | 256° |
| 2026-04-21 14:36 | 14.31694 | -18.89004 | 33919 ft | 447 kts | 256° |
| 2026-04-21 14:36 | 14.29960 | -18.95135 | 33926 ft | 445 kts | 256° |
| 2026-04-21 14:37 | 14.28227 | -19.01253 | 33927 ft | 444 kts | 255° |
| 2026-04-21 14:37 | 14.26505 | -19.07320 | 33926 ft | 444 kts | 255° |
| 2026-04-21 14:38 | 14.24769 | -19.13431 | 33928 ft | 444 kts | 255° |
| 2026-04-21 14:38 | 14.23031 | -19.19552 | 33927 ft | 445 kts | 255° |
| 2026-04-21 14:39 | 14.21288 | -19.25682 | 33925 ft | 446 kts | 255° |
| 2026-04-21 14:39 | 14.19549 | -19.31786 | 33927 ft | 447 kts | 255° |
| 2026-04-21 14:40 | 14.17794 | -19.37944 | 33926 ft | 449 kts | 255° |
| 2026-04-21 14:40 | 14.16031 | -19.44120 | 33927 ft | 450 kts | 255° |
| 2026-04-21 14:41 | 14.14264 | -19.50301 | 33925 ft | 450 kts | 255° |
| 2026-04-21 14:41 | 14.12495 | -19.56486 | 33927 ft | 450 kts | 255° |
| 2026-04-21 14:42 | 14.10735 | -19.62633 | 33926 ft | 451 kts | 255° |
| 2026-04-21 14:42 | 14.08962 | -19.68822 | 33928 ft | 451 kts | 255° |
| 2026-04-21 14:43 | 14.07185 | -19.75015 | 33925 ft | 451 kts | 255° |
| 2026-04-21 14:43 | 14.05407 | -19.81204 | 33927 ft | 451 kts | 255° |
| 2026-04-21 14:44 | 14.03638 | -19.87360 | 33925 ft | 451 kts | 255° |
| 2026-04-21 14:44 | 14.01855 | -19.93556 | 33926 ft | 451 kts | 255° |
| 2026-04-21 14:45 | 14.00157 | -19.99773 | 33920 ft | 451 kts | 258° |
| 2026-04-21 14:45 | 13.99300 | -20.06151 | 33931 ft | 450 kts | 264° |
| 2026-04-21 14:46 | 13.98651 | -20.12515 | 33925 ft | 450 kts | 264° |
| 2026-04-21 14:46 | 13.97972 | -20.18915 | 33931 ft | 450 kts | 264° |
| 2026-04-21 14:47 | 13.97282 | -20.25314 | 33929 ft | 450 kts | 264° |
| 2026-04-21 14:47 | 13.96589 | -20.31716 | 33923 ft | 450 kts | 264° |
| 2026-04-21 14:48 | 13.95897 | -20.38080 | 33928 ft | 450 kts | 264° |
| 2026-04-21 14:48 | 13.95203 | -20.44489 | 33926 ft | 451 kts | 264° |
| 2026-04-21 14:49 | 13.94506 | -20.50905 | 33925 ft | 451 kts | 264° |
| 2026-04-21 14:49 | 13.93806 | -20.57319 | 33927 ft | 451 kts | 263° |
| 2026-04-21 14:50 | 13.93223 | -20.62654 | 33927 ft | 451 kts | 263° |
| 2026-04-21 14:50 | 13.92405 | -20.70121 | 33930 ft | 452 kts | 263° |
| 2026-04-21 14:51 | 13.91858 | -20.76565 | 33934 ft | 452 kts | 266° |
| 2026-04-21 14:51 | 13.91517 | -20.83029 | 33936 ft | 453 kts | 266° |
| 2026-04-21 14:52 | 13.91190 | -20.89504 | 33935 ft | 454 kts | 266° |
| 2026-04-21 14:52 | 13.90848 | -20.95946 | 33934 ft | 454 kts | 266° |
| 2026-04-21 14:53 | 13.90494 | -21.02442 | 33937 ft | 455 kts | 266° |
| 2026-04-21 14:53 | 13.90132 | -21.08935 | 33937 ft | 455 kts | 266° |
| 2026-04-21 14:54 | 13.89772 | -21.15431 | 33935 ft | 455 kts | 266° |
| 2026-04-21 14:54 | 13.89411 | -21.21883 | 33936 ft | 454 kts | 266° |
| 2026-04-21 14:55 | 13.89050 | -21.28375 | 33943 ft | 454 kts | 266° |
| 2026-04-21 14:55 | 13.88685 | -21.34861 | 33945 ft | 454 kts | 266° |
| 2026-04-21 14:56 | 13.88319 | -21.41342 | 33949 ft | 454 kts | 266° |
| 2026-04-21 14:56 | 13.87952 | -21.47824 | 33948 ft | 454 kts | 266° |
| 2026-04-21 14:57 | 13.87583 | -21.54263 | 33943 ft | 454 kts | 266° |
| 2026-04-21 14:57 | 13.87214 | -21.60744 | 33940 ft | 453 kts | 266° |
| 2026-04-21 14:58 | 13.86841 | -21.67217 | 33951 ft | 453 kts | 266° |
| 2026-04-21 14:58 | 13.86467 | -21.73691 | 33940 ft | 453 kts | 266° |
| 2026-04-21 14:59 | 13.86094 | -21.80106 | 33958 ft | 452 kts | 266° |
| 2026-04-21 14:59 | 13.85716 | -21.86553 | 33950 ft | 451 kts | 265° |
| 2026-04-21 15:00 | 13.85338 | -21.93003 | 33951 ft | 452 kts | 265° |
| 2026-04-21 15:00 | 13.84962 | -21.99457 | 33951 ft | 452 kts | 265° |
| 2026-04-21 15:01 | 13.84586 | -22.05879 | 33957 ft | 453 kts | 265° |
| 2026-04-21 15:01 | 13.84196 | -22.12344 | 33954 ft | 453 kts | 265° |
| 2026-04-21 15:02 | 13.83811 | -22.18804 | 33949 ft | 452 kts | 265° |
| 2026-04-21 15:02 | 13.83425 | -22.25256 | 33950 ft | 452 kts | 265° |
| 2026-04-21 15:03 | 13.83036 | -22.31664 | 33955 ft | 452 kts | 265° |
| 2026-04-21 15:03 | 13.82647 | -22.38124 | 33958 ft | 453 kts | 265° |
| 2026-04-21 15:04 | 13.82258 | -22.44593 | 33952 ft | 453 kts | 265° |
| 2026-04-21 15:04 | 13.81864 | -22.51067 | 33950 ft | 453 kts | 265° |
| 2026-04-21 15:05 | 13.81465 | -22.57490 | 33963 ft | 453 kts | 265° |
| 2026-04-21 15:05 | 13.80870 | -22.67220 | 33964 ft | 455 kts | 265° |
| 2026-04-21 15:06 | 13.80464 | -22.73727 | 33965 ft | 456 kts | 265° |
| 2026-04-21 15:06 | 13.80061 | -22.80239 | 33964 ft | 456 kts | 265° |
| 2026-04-21 15:07 | 13.79658 | -22.86712 | 33963 ft | 457 kts | 265° |
| 2026-04-21 15:07 | 13.79248 | -22.93234 | 33963 ft | 457 kts | 265° |
| 2026-04-21 15:08 | 13.78836 | -22.99757 | 33971 ft | 457 kts | 265° |
| 2026-04-21 15:08 | 13.78427 | -23.06239 | 33974 ft | 457 kts | 265° |
| 2026-04-21 15:09 | 13.78012 | -23.12765 | 33974 ft | 457 kts | 264° |
| 2026-04-21 15:09 | 13.77596 | -23.19295 | 33972 ft | 457 kts | 264° |
| 2026-04-21 15:10 | 13.77178 | -23.25827 | 33970 ft | 458 kts | 264° |
| 2026-04-21 15:10 | 13.76759 | -23.32357 | 33971 ft | 458 kts | 264° |
| 2026-04-21 15:11 | 13.76339 | -23.38844 | 33971 ft | 457 kts | 264° |
| 2026-04-21 15:11 | 13.75916 | -23.45370 | 33978 ft | 457 kts | 264° |
| 2026-04-21 15:12 | 13.75492 | -23.51893 | 33971 ft | 457 kts | 264° |
| 2026-04-21 15:12 | 13.75068 | -23.58371 | 33962 ft | 457 kts | 264° |
| 2026-04-21 15:13 | 13.74641 | -23.64888 | 33959 ft | 456 kts | 264° |
| 2026-04-21 15:13 | 13.74213 | -23.71394 | 33969 ft | 456 kts | 264° |
| 2026-04-21 15:14 | 13.73781 | -23.77896 | 33964 ft | 456 kts | 264° |
| 2026-04-21 15:14 | 13.73354 | -23.84355 | 33961 ft | 456 kts | 264° |
| 2026-04-21 15:15 | 13.72921 | -23.90856 | 33966 ft | 455 kts | 264° |
| 2026-04-21 15:15 | 13.72486 | -23.97354 | 33969 ft | 455 kts | 264° |
| 2026-04-21 15:16 | 13.72049 | -24.03845 | 33957 ft | 455 kts | 264° |
| 2026-04-21 15:16 | 13.71612 | -24.10333 | 33968 ft | 455 kts | 264° |
| 2026-04-21 15:17 | 13.71175 | -24.16777 | 33968 ft | 455 kts | 264° |
| 2026-04-21 15:17 | 13.70734 | -24.23266 | 33961 ft | 455 kts | 264° |
| 2026-04-21 15:18 | 13.70290 | -24.29763 | 33960 ft | 456 kts | 264° |
| 2026-04-21 15:18 | 13.69847 | -24.36267 | 33961 ft | 456 kts | 264° |
| 2026-04-21 15:19 | 13.69811 | -24.42752 | 33951 ft | 460 kts | 274° |
| 2026-04-21 15:19 | 13.71010 | -24.49234 | 33967 ft | 464 kts | 283° |
| 2026-04-21 15:20 | 13.73152 | -24.55514 | 33977 ft | 466 kts | 286° |
| 2026-04-21 15:20 | 13.75395 | -24.61775 | 33969 ft | 467 kts | 286° |
| 2026-04-21 15:21 | 13.77603 | -24.68014 | 33959 ft | 468 kts | 286° |
| 2026-04-21 15:21 | 13.79802 | -24.74313 | 33947 ft | 468 kts | 286° |
| 2026-04-21 15:22 | 13.81993 | -24.80621 | 33950 ft | 468 kts | 286° |
| 2026-04-21 15:22 | 13.84165 | -24.86881 | 33937 ft | 468 kts | 286° |
| 2026-04-21 15:23 | 13.86355 | -24.93184 | 33936 ft | 467 kts | 286° |
| 2026-04-21 15:23 | 13.88538 | -24.99482 | 33943 ft | 467 kts | 286° |
| 2026-04-21 15:24 | 13.90722 | -25.05785 | 33952 ft | 468 kts | 286° |
| 2026-04-21 15:24 | 13.92902 | -25.12089 | 33938 ft | 467 kts | 286° |
| 2026-04-21 15:25 | 13.95068 | -25.18350 | 33950 ft | 467 kts | 286° |
| 2026-04-21 15:25 | 13.97246 | -25.24657 | 33948 ft | 467 kts | 286° |
| 2026-04-21 15:26 | 13.99423 | -25.30963 | 33944 ft | 468 kts | 286° |
| 2026-04-21 15:26 | 14.01595 | -25.37266 | 33950 ft | 467 kts | 286° |
| 2026-04-21 15:27 | 14.03751 | -25.43519 | 33937 ft | 466 kts | 286° |
| 2026-04-21 15:27 | 14.05913 | -25.49800 | 33945 ft | 465 kts | 286° |
| 2026-04-21 15:28 | 14.08068 | -25.56075 | 33936 ft | 464 kts | 286° |
| 2026-04-21 15:28 | 14.10223 | -25.62345 | 33936 ft | 464 kts | 286° |
| 2026-04-21 15:29 | 14.12360 | -25.68575 | 33957 ft | 464 kts | 286° |
| 2026-04-21 15:29 | 14.14507 | -25.74843 | 33933 ft | 464 kts | 286° |
| 2026-04-21 15:30 | 14.16659 | -25.81116 | 33937 ft | 465 kts | 286° |
| 2026-04-21 15:30 | 14.18813 | -25.87411 | 33932 ft | 466 kts | 286° |
| 2026-04-21 15:31 | 14.20951 | -25.93668 | 33935 ft | 466 kts | 286° |
| 2026-04-21 15:31 | 14.23100 | -25.99975 | 33933 ft | 466 kts | 286° |
| 2026-04-21 15:32 | 14.25258 | -26.06290 | 33954 ft | 467 kts | 286° |
| 2026-04-21 15:32 | 14.27414 | -26.12613 | 33953 ft | 468 kts | 286° |
| 2026-04-21 15:33 | 14.29557 | -26.18888 | 33956 ft | 467 kts | 285° |
| 2026-04-21 15:33 | 14.31704 | -26.25205 | 33957 ft | 466 kts | 285° |
| 2026-04-21 15:34 | 14.33845 | -26.31517 | 33950 ft | 466 kts | 285° |
| 2026-04-21 15:34 | 14.35828 | -26.37848 | 33933 ft | 462 kts | 280° |
| 2026-04-21 15:35 | 14.37224 | -26.44268 | 33948 ft | 462 kts | 279° |
| 2026-04-21 15:35 | 14.38591 | -26.50737 | 33959 ft | 462 kts | 279° |
| 2026-04-21 15:36 | 14.39972 | -26.57207 | 33961 ft | 462 kts | 279° |
| 2026-04-21 15:36 | 14.41362 | -26.63674 | 33950 ft | 462 kts | 279° |
| 2026-04-21 15:37 | 14.42806 | -26.70095 | 33949 ft | 463 kts | 279° |
| 2026-04-21 15:37 | 14.44198 | -26.76568 | 33956 ft | 462 kts | 279° |
| 2026-04-21 15:38 | 14.45581 | -26.83031 | 33949 ft | 461 kts | 279° |
| 2026-04-21 15:38 | 14.46971 | -26.89486 | 33953 ft | 461 kts | 279° |
| 2026-04-21 15:39 | 14.48355 | -26.95893 | 33961 ft | 460 kts | 279° |
| 2026-04-21 15:39 | 14.49745 | -27.02339 | 33957 ft | 460 kts | 279° |
| 2026-04-21 15:40 | 14.51134 | -27.08785 | 33950 ft | 460 kts | 279° |
| 2026-04-21 15:40 | 14.52521 | -27.15236 | 33953 ft | 460 kts | 279° |
| 2026-04-21 15:41 | 14.53896 | -27.21647 | 33957 ft | 461 kts | 279° |
| 2026-04-21 15:41 | 14.55281 | -27.28103 | 33954 ft | 461 kts | 279° |
| 2026-04-21 15:42 | 14.56669 | -27.34567 | 33952 ft | 461 kts | 279° |
| 2026-04-21 15:42 | 14.58051 | -27.41039 | 33950 ft | 462 kts | 279° |
| 2026-04-21 15:43 | 14.59425 | -27.47468 | 33950 ft | 462 kts | 279° |
| 2026-04-21 15:43 | 14.60805 | -27.53939 | 33961 ft | 462 kts | 279° |
| 2026-04-21 15:44 | 14.62185 | -27.60421 | 33952 ft | 462 kts | 279° |
| 2026-04-21 15:44 | 14.63563 | -27.66904 | 33952 ft | 462 kts | 279° |
| 2026-04-21 15:45 | 14.64930 | -27.73345 | 33952 ft | 462 kts | 279° |
| 2026-04-21 15:45 | 14.66306 | -27.79829 | 33954 ft | 462 kts | 279° |
| 2026-04-21 15:46 | 14.67681 | -27.86317 | 33951 ft | 462 kts | 279° |
| 2026-04-21 15:46 | 14.69053 | -27.92804 | 33955 ft | 462 kts | 279° |
| 2026-04-21 15:47 | 14.70412 | -27.99243 | 33953 ft | 462 kts | 278° |
| 2026-04-21 15:47 | 14.71776 | -28.05721 | 33959 ft | 461 kts | 279° |
| 2026-04-21 15:48 | 14.73141 | -28.12198 | 33952 ft | 462 kts | 279° |
| 2026-04-21 15:48 | 14.74504 | -28.18679 | 33951 ft | 462 kts | 279° |
| 2026-04-21 15:49 | 14.75854 | -28.25114 | 33951 ft | 461 kts | 279° |
| 2026-04-21 15:49 | 14.77212 | -28.31595 | 33953 ft | 461 kts | 279° |
| 2026-04-21 15:50 | 14.78569 | -28.38075 | 33961 ft | 461 kts | 279° |
| 2026-04-21 15:50 | 14.79903 | -28.44555 | 33948 ft | 460 kts | 276° |
| 2026-04-21 15:51 | 14.80477 | -28.51105 | 33961 ft | 456 kts | 268° |
| 2026-04-21 15:51 | 14.80197 | -28.57593 | 33955 ft | 455 kts | 265° |
| 2026-04-21 15:52 | 14.79868 | -28.64121 | 33957 ft | 455 kts | 265° |
| 2026-04-21 15:52 | 14.79554 | -28.70655 | 33957 ft | 455 kts | 265° |
| 2026-04-21 15:53 | 14.79248 | -28.77193 | 33962 ft | 456 kts | 265° |
| 2026-04-21 15:53 | 14.78945 | -28.83690 | 33958 ft | 456 kts | 265° |
| 2026-04-21 15:54 | 14.78638 | -28.90231 | 33950 ft | 456 kts | 265° |
| 2026-04-21 15:54 | 14.78328 | -28.96781 | 33952 ft | 456 kts | 265° |
| 2026-04-21 15:55 | 14.78016 | -29.03335 | 33958 ft | 457 kts | 265° |
| 2026-04-21 15:55 | 14.77705 | -29.09853 | 33959 ft | 457 kts | 265° |
| 2026-04-21 15:56 | 14.77390 | -29.16416 | 33953 ft | 457 kts | 265° |
| 2026-04-21 15:56 | 14.77074 | -29.22976 | 33955 ft | 457 kts | 265° |
| 2026-04-21 15:57 | 14.76755 | -29.29532 | 33950 ft | 457 kts | 265° |
| 2026-04-21 15:57 | 14.76435 | -29.36042 | 33957 ft | 457 kts | 265° |
| 2026-04-21 15:58 | 14.76113 | -29.42599 | 33957 ft | 457 kts | 265° |
| 2026-04-21 15:58 | 14.75789 | -29.49157 | 33959 ft | 457 kts | 265° |
| 2026-04-21 15:59 | 14.75463 | -29.55715 | 33956 ft | 457 kts | 265° |
| 2026-04-21 15:59 | 14.75136 | -29.62233 | 33946 ft | 458 kts | 265° |
| 2026-04-21 16:00 | 14.74806 | -29.68802 | 33940 ft | 458 kts | 265° |
| 2026-04-21 16:00 | 14.74475 | -29.75377 | 33941 ft | 458 kts | 265° |
| 2026-04-21 16:01 | 14.74139 | -29.81952 | 33942 ft | 458 kts | 265° |
| 2026-04-21 16:01 | 14.73803 | -29.88483 | 33944 ft | 458 kts | 265° |
| 2026-04-21 16:02 | 14.73465 | -29.95055 | 33951 ft | 458 kts | 265° |
| 2026-04-21 16:02 | 14.73125 | -30.01632 | 33951 ft | 459 kts | 265° |
| 2026-04-21 16:03 | 14.72783 | -30.08212 | 33945 ft | 459 kts | 265° |
| 2026-04-21 16:03 | 14.72441 | -30.14750 | 33948 ft | 459 kts | 265° |
| 2026-04-21 16:04 | 14.72094 | -30.21334 | 33942 ft | 459 kts | 265° |
| 2026-04-21 16:04 | 14.71746 | -30.27918 | 33957 ft | 459 kts | 265° |
| 2026-04-21 16:05 | 14.71397 | -30.34494 | 33945 ft | 458 kts | 265° |
| 2026-04-21 16:05 | 14.71047 | -30.41023 | 33944 ft | 458 kts | 265° |
| 2026-04-21 16:06 | 14.70695 | -30.47598 | 33941 ft | 458 kts | 265° |
| 2026-04-21 16:06 | 14.70340 | -30.54170 | 33941 ft | 459 kts | 265° |
| 2026-04-21 16:07 | 14.69982 | -30.60745 | 33941 ft | 458 kts | 265° |
| 2026-04-21 16:07 | 14.69626 | -30.67271 | 33941 ft | 458 kts | 265° |
| 2026-04-21 16:08 | 14.69086 | -30.77120 | 33942 ft | 458 kts | 265° |
| 2026-04-21 16:09 | 14.68722 | -30.83680 | 33943 ft | 457 kts | 265° |
| 2026-04-21 16:09 | 14.68360 | -30.90236 | 33944 ft | 457 kts | 265° |
| 2026-04-21 16:10 | 14.67996 | -30.96745 | 33941 ft | 457 kts | 264° |
| 2026-04-21 16:10 | 14.67626 | -31.03298 | 33947 ft | 457 kts | 264° |
| 2026-04-21 16:11 | 14.67257 | -31.09848 | 33944 ft | 457 kts | 264° |
| 2026-04-21 16:11 | 14.66886 | -31.16397 | 33947 ft | 457 kts | 264° |
| 2026-04-21 16:12 | 14.66575 | -31.21839 | 33956 ft | 457 kts | 264° |
| 2026-04-21 16:12 | 14.66139 | -31.29455 | 33953 ft | 457 kts | 264° |
| 2026-04-21 16:13 | 14.65763 | -31.36013 | 33958 ft | 458 kts | 264° |
| 2026-04-21 16:13 | 14.65384 | -31.42571 | 33951 ft | 457 kts | 264° |
| 2026-04-21 16:14 | 14.65005 | -31.49081 | 33950 ft | 457 kts | 264° |
| 2026-04-21 16:14 | 14.64622 | -31.55632 | 33958 ft | 457 kts | 264° |
| 2026-04-21 16:15 | 14.64238 | -31.62185 | 33943 ft | 457 kts | 264° |
| 2026-04-21 16:15 | 14.63855 | -31.68692 | 33943 ft | 457 kts | 264° |
| 2026-04-21 16:16 | 14.63467 | -31.75240 | 33948 ft | 457 kts | 264° |
| 2026-04-21 16:16 | 14.63076 | -31.81793 | 33946 ft | 457 kts | 264° |
| 2026-04-21 16:17 | 14.62683 | -31.88342 | 33949 ft | 457 kts | 264° |
| 2026-04-21 16:17 | 14.62293 | -31.94848 | 33946 ft | 457 kts | 264° |
| 2026-04-21 16:18 | 14.61897 | -32.01397 | 33954 ft | 457 kts | 264° |
| 2026-04-21 16:18 | 14.61500 | -32.07950 | 33942 ft | 457 kts | 264° |
| 2026-04-21 16:19 | 14.61101 | -32.14504 | 33943 ft | 458 kts | 264° |
| 2026-04-21 16:19 | 14.60704 | -32.21016 | 33955 ft | 458 kts | 264° |
| 2026-04-21 16:20 | 14.60300 | -32.27576 | 33947 ft | 458 kts | 264° |
| 2026-04-21 16:20 | 14.59895 | -32.34134 | 33943 ft | 458 kts | 264° |
| 2026-04-21 16:21 | 14.59489 | -32.40693 | 33935 ft | 458 kts | 264° |
| 2026-04-21 16:21 | 14.59082 | -32.47208 | 33926 ft | 458 kts | 264° |
| 2026-04-21 16:22 | 14.58738 | -32.52707 | 33926 ft | 458 kts | 264° |
| 2026-04-21 16:22 | 14.58258 | -32.60333 | 33926 ft | 458 kts | 264° |
| 2026-04-21 16:23 | 14.57844 | -32.66892 | 33926 ft | 458 kts | 264° |
| 2026-04-21 16:23 | 14.57429 | -32.73411 | 33923 ft | 458 kts | 264° |
| 2026-04-21 16:24 | 14.57011 | -32.79971 | 33926 ft | 458 kts | 264° |
| 2026-04-21 16:24 | 14.56592 | -32.86531 | 33926 ft | 458 kts | 264° |
| 2026-04-21 16:25 | 14.56170 | -32.93088 | 33925 ft | 457 kts | 264° |
| 2026-04-21 16:25 | 14.55749 | -32.99594 | 33925 ft | 458 kts | 264° |
| 2026-04-21 16:26 | 14.55325 | -33.06150 | 33927 ft | 458 kts | 264° |
| 2026-04-21 16:26 | 14.54899 | -33.12716 | 33926 ft | 459 kts | 264° |
| 2026-04-21 16:27 | 14.54468 | -33.19286 | 33924 ft | 459 kts | 264° |
| 2026-04-21 16:27 | 14.54038 | -33.25819 | 33928 ft | 459 kts | 264° |
| 2026-04-21 16:28 | 14.53604 | -33.32398 | 33926 ft | 460 kts | 264° |
| 2026-04-21 16:28 | 14.53168 | -33.38983 | 33925 ft | 460 kts | 264° |
| 2026-04-21 16:29 | 14.52805 | -33.44457 | 33927 ft | 460 kts | 264° |
| 2026-04-21 16:29 | 14.52294 | -33.52111 | 33925 ft | 460 kts | 264° |
| 2026-04-21 16:30 | 14.51851 | -33.58705 | 33926 ft | 461 kts | 264° |
| 2026-04-21 16:30 | 14.51406 | -33.65304 | 33927 ft | 461 kts | 264° |
| 2026-04-21 16:31 | 14.50959 | -33.71908 | 33924 ft | 462 kts | 264° |
| 2026-04-21 16:31 | 14.50509 | -33.78526 | 33925 ft | 462 kts | 264° |
| 2026-04-21 16:32 | 14.50060 | -33.85101 | 33924 ft | 462 kts | 264° |
| 2026-04-21 16:32 | 14.49607 | -33.91718 | 33924 ft | 462 kts | 264° |
| 2026-04-21 16:33 | 14.49152 | -33.98341 | 33927 ft | 463 kts | 264° |
| 2026-04-21 16:33 | 14.48697 | -34.04926 | 33926 ft | 463 kts | 264° |
| 2026-04-21 16:34 | 14.48238 | -34.11553 | 33926 ft | 463 kts | 264° |
| 2026-04-21 16:34 | 14.47776 | -34.18182 | 33928 ft | 463 kts | 264° |
| 2026-04-21 16:35 | 14.47313 | -34.24812 | 33925 ft | 463 kts | 264° |
| 2026-04-21 16:35 | 14.46847 | -34.31435 | 33928 ft | 463 kts | 264° |
| 2026-04-21 16:36 | 14.46383 | -34.38009 | 33924 ft | 462 kts | 264° |
| 2026-04-21 16:36 | 14.45914 | -34.44620 | 33925 ft | 461 kts | 264° |
| 2026-04-21 16:37 | 14.45447 | -34.51216 | 33926 ft | 461 kts | 264° |
| 2026-04-21 16:37 | 14.45057 | -34.56692 | 33928 ft | 460 kts | 264° |
| 2026-04-21 16:38 | 14.44509 | -34.64346 | 33927 ft | 460 kts | 263° |
| 2026-04-21 16:38 | 14.44036 | -34.70922 | 33924 ft | 459 kts | 264° |
| 2026-04-21 16:39 | 14.43562 | -34.77494 | 33927 ft | 459 kts | 263° |
| 2026-04-21 16:39 | 14.43086 | -34.84060 | 33928 ft | 459 kts | 263° |
| 2026-04-21 16:40 | 14.42613 | -34.90573 | 33926 ft | 459 kts | 263° |
| 2026-04-21 16:40 | 14.42133 | -34.97150 | 33926 ft | 459 kts | 263° |
| 2026-04-21 16:41 | 14.41732 | -35.02613 | 33926 ft | 460 kts | 263° |
| 2026-04-21 16:41 | 14.41248 | -35.09186 | 33927 ft | 460 kts | 263° |
| 2026-04-21 16:42 | 14.40685 | -35.16829 | 33926 ft | 460 kts | 263° |
| 2026-04-21 16:42 | 14.40278 | -35.22335 | 33925 ft | 460 kts | 263° |
| 2026-04-21 16:43 | 14.39791 | -35.28864 | 33929 ft | 459 kts | 263° |
| 2026-04-21 16:43 | 14.39301 | -35.35430 | 33943 ft | 459 kts | 263° |
| 2026-04-21 16:44 | 14.38729 | -35.43059 | 33941 ft | 459 kts | 263° |
| 2026-04-21 16:44 | 14.38315 | -35.48562 | 33944 ft | 460 kts | 263° |
| 2026-04-21 16:45 | 14.37823 | -35.55092 | 33943 ft | 460 kts | 263° |
| 2026-04-21 16:45 | 14.37325 | -35.61672 | 33945 ft | 460 kts | 263° |
| 2026-04-21 16:46 | 14.36822 | -35.68260 | 33951 ft | 461 kts | 263° |
| 2026-04-21 16:46 | 14.36319 | -35.74856 | 33946 ft | 461 kts | 263° |
| 2026-04-21 16:47 | 14.35818 | -35.81412 | 33945 ft | 462 kts | 263° |
| 2026-04-21 16:47 | 14.35310 | -35.88013 | 33943 ft | 462 kts | 263° |
| 2026-04-21 16:48 | 14.34800 | -35.94615 | 33943 ft | 462 kts | 263° |
| 2026-04-21 16:48 | 14.34289 | -36.01216 | 33941 ft | 462 kts | 263° |
| 2026-04-21 16:49 | 14.33780 | -36.07770 | 33939 ft | 462 kts | 263° |
| 2026-04-21 16:49 | 14.33266 | -36.14366 | 33948 ft | 461 kts | 263° |
| 2026-04-21 16:50 | 14.32749 | -36.20962 | 33943 ft | 461 kts | 263° |
| 2026-04-21 16:50 | 14.32230 | -36.27561 | 33946 ft | 462 kts | 263° |
| 2026-04-21 16:51 | 14.31716 | -36.34114 | 33942 ft | 462 kts | 263° |
| 2026-04-21 16:51 | 14.31195 | -36.40710 | 33943 ft | 461 kts | 263° |
| 2026-04-21 16:52 | 14.30671 | -36.47302 | 33940 ft | 461 kts | 263° |
| 2026-04-21 16:52 | 14.30147 | -36.53883 | 33947 ft | 460 kts | 263° |
| 2026-04-21 16:53 | 14.29624 | -36.60404 | 33945 ft | 460 kts | 263° |
| 2026-04-21 16:53 | 14.29098 | -36.66967 | 33944 ft | 459 kts | 262° |
| 2026-04-21 16:54 | 14.28571 | -36.73522 | 33942 ft | 459 kts | 262° |
| 2026-04-21 16:54 | 14.28041 | -36.80076 | 33944 ft | 459 kts | 262° |
| 2026-04-21 16:55 | 14.27509 | -36.86630 | 33944 ft | 459 kts | 262° |
| 2026-04-21 16:55 | 14.26979 | -36.93142 | 33940 ft | 459 kts | 262° |
| 2026-04-21 16:56 | 14.26445 | -36.99691 | 33943 ft | 458 kts | 262° |
| 2026-04-21 16:56 | 14.25909 | -37.06239 | 33949 ft | 458 kts | 262° |
| 2026-04-21 16:57 | 14.25371 | -37.12785 | 33948 ft | 458 kts | 262° |
| 2026-04-21 16:57 | 14.24835 | -37.19286 | 33941 ft | 458 kts | 262° |
| 2026-04-21 16:58 | 14.24293 | -37.25834 | 33941 ft | 459 kts | 262° |
| 2026-04-21 16:58 | 14.23751 | -37.32383 | 33951 ft | 459 kts | 262° |
| 2026-04-21 16:59 | 14.23205 | -37.38934 | 33945 ft | 459 kts | 262° |
| 2026-04-21 16:59 | 14.22661 | -37.45442 | 33944 ft | 459 kts | 262° |
| 2026-04-21 17:00 | 14.22111 | -37.52000 | 33945 ft | 459 kts | 262° |
| 2026-04-21 17:00 | 14.21652 | -37.57452 | 33944 ft | 459 kts | 262° |
| 2026-04-21 17:01 | 14.21006 | -37.65122 | 33941 ft | 460 kts | 262° |
| 2026-04-21 17:01 | 14.20453 | -37.71645 | 33940 ft | 460 kts | 262° |
| 2026-04-21 17:02 | 14.19896 | -37.78215 | 33942 ft | 460 kts | 262° |
| 2026-04-21 17:02 | 14.19332 | -37.84785 | 33940 ft | 460 kts | 262° |
| 2026-04-21 17:03 | 14.18773 | -37.91357 | 33947 ft | 461 kts | 262° |
| 2026-04-21 17:03 | 14.18217 | -37.97887 | 33950 ft | 460 kts | 262° |
| 2026-04-21 17:04 | 14.17651 | -38.04458 | 33949 ft | 461 kts | 262° |
| 2026-04-21 17:04 | 14.17083 | -38.11038 | 33955 ft | 461 kts | 262° |
| 2026-04-21 17:05 | 14.16512 | -38.17620 | 33940 ft | 461 kts | 262° |
| 2026-04-21 17:05 | 14.15941 | -38.24165 | 33955 ft | 462 kts | 262° |
| 2026-04-21 17:06 | 14.15368 | -38.30751 | 33940 ft | 461 kts | 262° |
| 2026-04-21 17:06 | 14.14794 | -38.37330 | 33944 ft | 461 kts | 262° |
| 2026-04-21 17:07 | 14.14219 | -38.43899 | 33942 ft | 460 kts | 262° |
| 2026-04-21 17:07 | 14.13646 | -38.50416 | 33941 ft | 460 kts | 262° |
| 2026-04-21 17:08 | 14.13067 | -38.56973 | 33942 ft | 459 kts | 262° |
| 2026-04-21 17:08 | 14.12488 | -38.63521 | 33940 ft | 459 kts | 262° |
| 2026-04-21 17:09 | 14.11614 | -38.73332 | 33942 ft | 458 kts | 262° |
| 2026-04-21 17:09 | 14.11037 | -38.79821 | 33941 ft | 458 kts | 262° |
| 2026-04-21 17:10 | 14.10452 | -38.86355 | 33941 ft | 458 kts | 262° |
| 2026-04-21 17:10 | 14.09866 | -38.92890 | 33953 ft | 458 kts | 262° |
| 2026-04-21 17:11 | 14.09278 | -38.99425 | 33949 ft | 458 kts | 262° |
| 2026-04-21 17:11 | 14.08692 | -39.05914 | 33940 ft | 458 kts | 262° |
| 2026-04-21 17:12 | 14.08100 | -39.12445 | 33941 ft | 458 kts | 262° |
| 2026-04-21 17:12 | 14.07506 | -39.18980 | 33941 ft | 458 kts | 262° |
| 2026-04-21 17:13 | 14.06910 | -39.25520 | 33949 ft | 459 kts | 262° |
| 2026-04-21 17:13 | 14.06317 | -39.32016 | 33940 ft | 459 kts | 262° |
| 2026-04-21 17:14 | 14.05717 | -39.38562 | 33942 ft | 459 kts | 262° |
| 2026-04-21 17:14 | 14.05115 | -39.45114 | 33941 ft | 460 kts | 262° |
| 2026-04-21 17:15 | 14.04511 | -39.51670 | 33941 ft | 460 kts | 262° |
| 2026-04-21 17:15 | 14.03907 | -39.58187 | 33950 ft | 460 kts | 262° |
| 2026-04-21 17:16 | 14.03297 | -39.64751 | 33942 ft | 461 kts | 262° |
| 2026-04-21 17:16 | 14.02687 | -39.71321 | 33944 ft | 461 kts | 262° |
| 2026-04-21 17:17 | 14.02075 | -39.77893 | 33954 ft | 461 kts | 262° |
| 2026-04-21 17:17 | 14.01464 | -39.84425 | 33941 ft | 461 kts | 262° |
| 2026-04-21 17:18 | 14.00846 | -39.91004 | 33942 ft | 462 kts | 262° |
| 2026-04-21 17:18 | 14.00228 | -39.97579 | 33941 ft | 461 kts | 262° |
| 2026-04-21 17:19 | 13.99279 | -40.04082 | 33951 ft | 458 kts | 256° |
| 2026-04-21 17:19 | 13.98038 | -40.10479 | 33940 ft | 459 kts | 256° |
| 2026-04-21 17:20 | 13.96795 | -40.16923 | 33953 ft | 459 kts | 256° |
| 2026-04-21 17:20 | 13.95562 | -40.23378 | 33937 ft | 460 kts | 256° |
| 2026-04-21 17:21 | 13.94331 | -40.29833 | 33954 ft | 460 kts | 256° |
| 2026-04-21 17:21 | 13.93111 | -40.36247 | 33941 ft | 460 kts | 256° |
| 2026-04-21 17:22 | 13.91879 | -40.42705 | 33947 ft | 460 kts | 256° |
| 2026-04-21 17:22 | 13.90644 | -40.49160 | 33945 ft | 460 kts | 256° |
| 2026-04-21 17:23 | 13.89408 | -40.55617 | 33941 ft | 460 kts | 256° |
| 2026-04-21 17:23 | 13.88177 | -40.62035 | 33938 ft | 460 kts | 256° |
| 2026-04-21 17:24 | 13.86937 | -40.68495 | 33941 ft | 460 kts | 256° |
| 2026-04-21 17:24 | 13.85695 | -40.74953 | 33940 ft | 460 kts | 256° |
| 2026-04-21 17:25 | 13.84450 | -40.81420 | 33946 ft | 461 kts | 256° |
| 2026-04-21 17:25 | 13.83211 | -40.87847 | 33943 ft | 461 kts | 256° |
| 2026-04-21 17:26 | 13.81960 | -40.94319 | 33948 ft | 461 kts | 256° |
| 2026-04-21 17:26 | 13.80707 | -41.00797 | 33940 ft | 462 kts | 256° |
| 2026-04-21 17:27 | 13.79451 | -41.07276 | 33939 ft | 462 kts | 256° |
| 2026-04-21 17:27 | 13.78194 | -41.13759 | 33941 ft | 462 kts | 256° |
| 2026-04-21 17:28 | 13.76945 | -41.20195 | 33948 ft | 462 kts | 256° |
| 2026-04-21 17:28 | 13.75685 | -41.26671 | 33950 ft | 462 kts | 256° |
| 2026-04-21 17:29 | 13.74422 | -41.33144 | 33947 ft | 461 kts | 256° |
| 2026-04-21 17:29 | 13.73160 | -41.39612 | 33940 ft | 461 kts | 256° |
| 2026-04-21 17:30 | 13.71905 | -41.46030 | 33943 ft | 461 kts | 256° |
| 2026-04-21 17:30 | 13.70641 | -41.52489 | 33944 ft | 461 kts | 256° |
| 2026-04-21 17:31 | 13.69376 | -41.58947 | 33935 ft | 461 kts | 256° |
| 2026-04-21 17:31 | 13.68111 | -41.65403 | 33937 ft | 461 kts | 256° |
| 2026-04-21 17:32 | 13.66843 | -41.71856 | 33934 ft | 460 kts | 256° |
| 2026-04-21 17:32 | 13.65581 | -41.78261 | 33937 ft | 460 kts | 256° |
| 2026-04-21 17:33 | 13.64310 | -41.84708 | 33941 ft | 460 kts | 256° |
| 2026-04-21 17:33 | 13.63037 | -41.91156 | 33945 ft | 460 kts | 256° |
| 2026-04-21 17:34 | 13.61764 | -41.97600 | 33939 ft | 460 kts | 256° |
| 2026-04-21 17:34 | 13.60497 | -42.04003 | 33951 ft | 461 kts | 256° |
| 2026-04-21 17:35 | 13.59217 | -42.10457 | 33946 ft | 461 kts | 256° |
| 2026-04-21 17:35 | 13.57936 | -42.16915 | 33946 ft | 461 kts | 256° |
| 2026-04-21 17:36 | 13.56654 | -42.23373 | 33951 ft | 461 kts | 256° |
| 2026-04-21 17:36 | 13.55376 | -42.29786 | 33940 ft | 461 kts | 256° |
| 2026-04-21 17:37 | 13.54088 | -42.36240 | 33940 ft | 461 kts | 256° |
| 2026-04-21 17:37 | 13.52798 | -42.42699 | 33947 ft | 462 kts | 256° |
| 2026-04-21 17:38 | 13.51507 | -42.49166 | 33940 ft | 462 kts | 256° |
| 2026-04-21 17:38 | 13.50221 | -42.55587 | 33941 ft | 462 kts | 256° |
| 2026-04-21 17:39 | 13.48924 | -42.62060 | 33939 ft | 463 kts | 256° |
| 2026-04-21 17:39 | 13.47626 | -42.68533 | 33937 ft | 463 kts | 256° |
| 2026-04-21 17:40 | 13.46325 | -42.75009 | 33940 ft | 463 kts | 256° |
| 2026-04-21 17:40 | 13.45020 | -42.81488 | 33944 ft | 463 kts | 256° |
| 2026-04-21 17:41 | 13.43723 | -42.87924 | 33952 ft | 463 kts | 256° |
| 2026-04-21 17:41 | 13.42415 | -42.94408 | 33944 ft | 464 kts | 256° |
| 2026-04-21 17:42 | 13.41105 | -43.00891 | 33937 ft | 464 kts | 256° |
| 2026-04-21 17:42 | 13.39793 | -43.07375 | 33946 ft | 464 kts | 256° |
| 2026-04-21 17:43 | 13.38487 | -43.13817 | 33940 ft | 464 kts | 256° |
| 2026-04-21 17:43 | 13.37172 | -43.20303 | 33946 ft | 464 kts | 256° |
| 2026-04-21 17:44 | 13.35856 | -43.26780 | 33939 ft | 463 kts | 256° |
| 2026-04-21 17:44 | 13.34537 | -43.33254 | 33950 ft | 463 kts | 256° |
| 2026-04-21 17:45 | 13.33227 | -43.39681 | 33949 ft | 463 kts | 256° |
| 2026-04-21 17:45 | 13.31911 | -43.46143 | 33947 ft | 462 kts | 256° |
| 2026-04-21 17:46 | 13.30592 | -43.52599 | 33952 ft | 462 kts | 256° |
| 2026-04-21 17:46 | 13.29271 | -43.59050 | 33946 ft | 462 kts | 256° |
| 2026-04-21 17:47 | 13.27959 | -43.65451 | 33954 ft | 462 kts | 256° |
| 2026-04-21 17:47 | 13.26636 | -43.71901 | 33941 ft | 462 kts | 256° |
| 2026-04-21 17:48 | 13.25311 | -43.78352 | 33943 ft | 462 kts | 256° |
| 2026-04-21 17:48 | 13.23984 | -43.84807 | 33946 ft | 462 kts | 256° |
| 2026-04-21 17:49 | 13.22666 | -43.91212 | 33941 ft | 462 kts | 256° |
| 2026-04-21 17:49 | 13.21333 | -43.97665 | 33944 ft | 462 kts | 256° |
| 2026-04-21 17:50 | 13.20002 | -44.04117 | 33944 ft | 462 kts | 256° |
| 2026-04-21 17:50 | 13.18669 | -44.10564 | 33941 ft | 462 kts | 255° |
| 2026-04-21 17:51 | 13.17334 | -44.17008 | 33940 ft | 461 kts | 255° |
| 2026-04-21 17:51 | 13.16011 | -44.23401 | 33950 ft | 461 kts | 255° |
| 2026-04-21 17:52 | 13.14674 | -44.29841 | 33952 ft | 461 kts | 255° |
| 2026-04-21 17:52 | 13.13335 | -44.36280 | 33943 ft | 462 kts | 255° |
| 2026-04-21 17:53 | 13.12004 | -44.42677 | 33945 ft | 462 kts | 255° |
| 2026-04-21 17:53 | 13.10661 | -44.49120 | 33945 ft | 462 kts | 255° |
| 2026-04-21 17:54 | 13.09317 | -44.55566 | 33947 ft | 462 kts | 255° |
| 2026-04-21 17:54 | 13.07970 | -44.62010 | 33940 ft | 462 kts | 255° |
| 2026-04-21 17:55 | 13.06631 | -44.68415 | 33951 ft | 462 kts | 255° |
| 2026-04-21 17:55 | 13.05280 | -44.74863 | 33951 ft | 463 kts | 255° |
| 2026-04-21 17:56 | 13.03926 | -44.81312 | 33950 ft | 463 kts | 255° |
| 2026-04-21 17:56 | 13.02574 | -44.87760 | 33943 ft | 462 kts | 255° |
| 2026-04-21 17:57 | 13.01219 | -44.94206 | 33940 ft | 462 kts | 255° |
| 2026-04-21 17:57 | 12.99873 | -45.00607 | 33939 ft | 462 kts | 255° |
| 2026-04-21 17:58 | 12.98611 | -45.07076 | 33951 ft | 463 kts | 256° |
| 2026-04-21 17:58 | 12.97400 | -45.13558 | 33939 ft | 463 kts | 256° |
| 2026-04-21 17:59 | 12.96179 | -45.20035 | 33948 ft | 463 kts | 256° |
| 2026-04-21 17:59 | 12.94956 | -45.26470 | 33948 ft | 463 kts | 256° |
| 2026-04-21 18:00 | 12.93718 | -45.32950 | 33947 ft | 463 kts | 256° |
| 2026-04-21 18:00 | 12.92478 | -45.39435 | 33946 ft | 464 kts | 256° |
| 2026-04-21 18:01 | 12.91236 | -45.45914 | 33938 ft | 463 kts | 256° |
| 2026-04-21 18:01 | 12.90000 | -45.52352 | 33941 ft | 463 kts | 256° |
| 2026-04-21 18:02 | 12.88754 | -45.58832 | 33952 ft | 464 kts | 256° |
| 2026-04-21 18:02 | 12.87508 | -45.65313 | 33939 ft | 464 kts | 256° |
| 2026-04-21 18:03 | 12.86259 | -45.71794 | 33946 ft | 464 kts | 256° |
| 2026-04-21 18:03 | 12.85016 | -45.78232 | 33941 ft | 464 kts | 256° |
| 2026-04-21 18:04 | 12.83762 | -45.84719 | 33941 ft | 464 kts | 256° |
| 2026-04-21 18:04 | 12.82505 | -45.91204 | 33938 ft | 464 kts | 256° |
| 2026-04-21 18:05 | 12.81249 | -45.97691 | 33950 ft | 464 kts | 256° |
| 2026-04-21 18:05 | 12.79999 | -46.04137 | 33953 ft | 464 kts | 256° |
| 2026-04-21 18:06 | 12.78739 | -46.10622 | 33947 ft | 464 kts | 256° |
| 2026-04-21 18:06 | 12.77481 | -46.17087 | 33925 ft | 462 kts | 256° |
| 2026-04-21 18:07 | 12.76228 | -46.23521 | 33921 ft | 459 kts | 256° |
| 2026-04-21 18:07 | 12.74987 | -46.29882 | 33923 ft | 458 kts | 256° |
| 2026-04-21 18:08 | 12.73740 | -46.36267 | 33927 ft | 457 kts | 256° |
| 2026-04-21 18:08 | 12.72491 | -46.42646 | 33926 ft | 457 kts | 256° |
| 2026-04-21 18:09 | 12.71244 | -46.49023 | 33926 ft | 457 kts | 256° |
| 2026-04-21 18:09 | 12.70001 | -46.55360 | 33927 ft | 457 kts | 256° |
| 2026-04-21 18:10 | 12.68744 | -46.61748 | 33927 ft | 458 kts | 256° |
| 2026-04-21 18:10 | 12.67488 | -46.68141 | 33924 ft | 458 kts | 256° |
| 2026-04-21 18:11 | 12.66230 | -46.74539 | 33927 ft | 458 kts | 256° |
| 2026-04-21 18:11 | 12.64975 | -46.80896 | 33925 ft | 458 kts | 256° |
| 2026-04-21 18:12 | 12.63713 | -46.87299 | 33927 ft | 459 kts | 256° |
| 2026-04-21 18:12 | 12.62447 | -46.93708 | 33926 ft | 459 kts | 256° |
| 2026-04-21 18:13 | 12.61177 | -47.00117 | 33926 ft | 459 kts | 256° |
| 2026-04-21 18:13 | 12.59914 | -47.06482 | 33925 ft | 459 kts | 256° |
| 2026-04-21 18:14 | 12.58008 | -47.16090 | 33928 ft | 459 kts | 256° |
| 2026-04-21 18:15 | 12.56736 | -47.22488 | 33925 ft | 459 kts | 256° |
| 2026-04-21 18:15 | 12.55462 | -47.28892 | 33928 ft | 459 kts | 256° |
| 2026-04-21 18:16 | 12.54192 | -47.35256 | 33925 ft | 460 kts | 256° |
| 2026-04-21 18:16 | 12.52912 | -47.41668 | 33927 ft | 460 kts | 256° |
| 2026-04-21 18:17 | 12.51629 | -47.48084 | 33926 ft | 461 kts | 256° |
| 2026-04-21 18:17 | 12.50344 | -47.54511 | 33927 ft | 461 kts | 256° |
| 2026-04-21 18:18 | 12.49064 | -47.60902 | 33925 ft | 462 kts | 256° |
| 2026-04-21 18:18 | 12.47772 | -47.67342 | 33926 ft | 463 kts | 255° |
| 2026-04-21 18:19 | 12.46476 | -47.73794 | 33928 ft | 463 kts | 255° |
| 2026-04-21 18:19 | 12.45185 | -47.80205 | 33925 ft | 463 kts | 255° |
| 2026-04-21 18:20 | 12.43885 | -47.86663 | 33926 ft | 464 kts | 255° |
| 2026-04-21 18:20 | 12.42582 | -47.93124 | 33926 ft | 464 kts | 255° |
| 2026-04-21 18:21 | 12.41276 | -47.99598 | 33925 ft | 464 kts | 255° |
| 2026-04-21 18:21 | 12.39969 | -48.06064 | 33926 ft | 464 kts | 255° |
| 2026-04-21 18:22 | 12.38668 | -48.12491 | 33927 ft | 465 kts | 255° |
| 2026-04-21 18:22 | 12.37356 | -48.18966 | 33927 ft | 465 kts | 255° |
| 2026-04-21 18:23 | 12.36042 | -48.25441 | 33926 ft | 465 kts | 255° |
| 2026-04-21 18:23 | 12.34726 | -48.31913 | 33926 ft | 465 kts | 255° |
| 2026-04-21 18:24 | 12.33420 | -48.38338 | 33925 ft | 464 kts | 255° |
| 2026-04-21 18:24 | 12.32103 | -48.44802 | 33925 ft | 464 kts | 255° |
| 2026-04-21 18:25 | 12.30787 | -48.51257 | 33926 ft | 464 kts | 255° |
| 2026-04-21 18:25 | 12.29471 | -48.57702 | 33926 ft | 463 kts | 255° |
| 2026-04-21 18:26 | 12.28164 | -48.64095 | 33926 ft | 462 kts | 255° |
| 2026-04-21 18:26 | 12.26846 | -48.70529 | 33926 ft | 462 kts | 255° |
| 2026-04-21 18:27 | 12.25529 | -48.76957 | 33926 ft | 462 kts | 255° |
| 2026-04-21 18:27 | 12.24210 | -48.83386 | 33925 ft | 462 kts | 255° |
| 2026-04-21 18:28 | 12.22897 | -48.89777 | 33926 ft | 463 kts | 255° |
| 2026-04-21 18:28 | 12.21574 | -48.96212 | 33925 ft | 462 kts | 255° |
| 2026-04-21 18:29 | 12.20248 | -49.02647 | 33928 ft | 463 kts | 255° |
| 2026-04-21 18:29 | 12.18920 | -49.09080 | 33926 ft | 463 kts | 255° |
| 2026-04-21 18:30 | 12.17602 | -49.15469 | 33927 ft | 462 kts | 255° |
| 2026-04-21 18:30 | 12.16273 | -49.21900 | 33926 ft | 462 kts | 255° |
| 2026-04-21 18:31 | 12.14941 | -49.28332 | 33926 ft | 463 kts | 255° |
| 2026-04-21 18:31 | 12.13607 | -49.34765 | 33927 ft | 463 kts | 255° |
| 2026-04-21 18:32 | 12.12270 | -49.41209 | 33927 ft | 464 kts | 255° |
| 2026-04-21 18:32 | 12.10940 | -49.47620 | 33925 ft | 464 kts | 255° |
| 2026-04-21 18:33 | 12.09595 | -49.54079 | 33926 ft | 465 kts | 255° |
| 2026-04-21 18:33 | 12.08249 | -49.60546 | 33927 ft | 466 kts | 255° |
| 2026-04-21 18:34 | 12.06897 | -49.67026 | 33927 ft | 467 kts | 255° |
| 2026-04-21 18:34 | 12.05554 | -49.73462 | 33927 ft | 467 kts | 255° |
| 2026-04-21 18:35 | 12.04419 | -49.78896 | 33925 ft | 467 kts | 255° |
| 2026-04-21 18:35 | 12.02842 | -49.86434 | 33927 ft | 467 kts | 255° |
| 2026-04-21 18:36 | 12.01484 | -49.92921 | 33927 ft | 467 kts | 255° |
| 2026-04-21 18:36 | 12.00132 | -49.99369 | 33926 ft | 467 kts | 255° |
| 2026-04-21 18:37 | 11.98853 | -50.05883 | 33926 ft | 468 kts | 256° |
| 2026-04-21 18:37 | 11.97657 | -50.12421 | 33926 ft | 468 kts | 256° |
| 2026-04-21 18:38 | 11.96460 | -50.18954 | 33926 ft | 468 kts | 256° |
| 2026-04-21 18:38 | 11.95256 | -50.25438 | 33927 ft | 468 kts | 256° |
| 2026-04-21 18:39 | 11.94036 | -50.31961 | 33926 ft | 468 kts | 256° |
| 2026-04-21 18:39 | 11.92813 | -50.38483 | 33925 ft | 467 kts | 256° |
| 2026-04-21 18:40 | 11.91591 | -50.45001 | 33926 ft | 467 kts | 256° |
| 2026-04-21 18:40 | 11.90571 | -50.50420 | 33926 ft | 468 kts | 256° |
| 2026-04-21 18:41 | 11.89143 | -50.58014 | 33926 ft | 469 kts | 256° |
| 2026-04-21 18:41 | 11.87915 | -50.64548 | 33926 ft | 469 kts | 256° |
| 2026-04-21 18:42 | 11.86683 | -50.71081 | 33926 ft | 469 kts | 256° |
| 2026-04-21 18:42 | 11.85458 | -50.77575 | 33925 ft | 469 kts | 256° |
| 2026-04-21 18:43 | 11.84224 | -50.84113 | 33925 ft | 469 kts | 256° |
| 2026-04-21 18:43 | 11.82985 | -50.90653 | 33927 ft | 469 kts | 256° |
| 2026-04-21 18:44 | 11.81744 | -50.97195 | 33927 ft | 470 kts | 256° |
| 2026-04-21 18:44 | 11.80510 | -51.03696 | 33926 ft | 469 kts | 256° |
| 2026-04-21 18:45 | 11.79267 | -51.10237 | 33924 ft | 470 kts | 256° |
| 2026-04-21 18:45 | 11.78021 | -51.16784 | 33929 ft | 470 kts | 256° |
| 2026-04-21 18:46 | 11.76775 | -51.23330 | 33925 ft | 470 kts | 256° |
| 2026-04-21 18:46 | 11.75535 | -51.29832 | 33926 ft | 470 kts | 256° |
| 2026-04-21 18:47 | 11.74286 | -51.36375 | 33925 ft | 470 kts | 256° |
| 2026-04-21 18:47 | 11.73035 | -51.42917 | 33927 ft | 470 kts | 256° |
| 2026-04-21 18:48 | 11.71784 | -51.49453 | 33925 ft | 469 kts | 256° |
| 2026-04-21 18:48 | 11.70539 | -51.55944 | 33927 ft | 469 kts | 256° |
| 2026-04-21 18:49 | 11.69287 | -51.62471 | 33926 ft | 469 kts | 256° |
| 2026-04-21 18:49 | 11.68244 | -51.67890 | 33926 ft | 468 kts | 256° |
| 2026-04-21 18:50 | 11.66778 | -51.75510 | 33926 ft | 468 kts | 256° |
| 2026-04-21 18:50 | 11.65532 | -51.81979 | 33924 ft | 468 kts | 256° |
| 2026-04-21 18:51 | 11.64277 | -51.88485 | 33926 ft | 467 kts | 256° |
| 2026-04-21 18:51 | 11.63022 | -51.94985 | 33926 ft | 467 kts | 256° |
| 2026-04-21 18:52 | 11.61765 | -52.01480 | 33928 ft | 467 kts | 256° |
| 2026-04-21 18:52 | 11.60507 | -52.07979 | 33926 ft | 467 kts | 256° |
| 2026-04-21 18:53 | 11.59255 | -52.14435 | 33927 ft | 468 kts | 256° |
| 2026-04-21 18:53 | 11.57992 | -52.20943 | 33927 ft | 468 kts | 256° |
| 2026-04-21 18:54 | 11.56726 | -52.27458 | 33926 ft | 468 kts | 256° |
| 2026-04-21 18:54 | 11.55455 | -52.33976 | 33926 ft | 469 kts | 256° |
| 2026-04-21 18:55 | 11.54399 | -52.39397 | 33926 ft | 469 kts | 256° |
| 2026-04-21 18:55 | 11.52919 | -52.46988 | 33923 ft | 470 kts | 256° |
| 2026-04-21 18:56 | 11.51644 | -52.53517 | 33927 ft | 470 kts | 256° |
| 2026-04-21 18:56 | 11.50366 | -52.60054 | 33925 ft | 471 kts | 256° |
| 2026-04-21 18:57 | 11.49096 | -52.66548 | 33925 ft | 470 kts | 256° |
| 2026-04-21 18:57 | 11.47812 | -52.73086 | 33927 ft | 470 kts | 256° |
| 2026-04-21 18:58 | 11.46528 | -52.79624 | 33926 ft | 470 kts | 256° |
| 2026-04-21 18:58 | 11.45242 | -52.86167 | 33927 ft | 471 kts | 256° |
| 2026-04-21 18:59 | 11.43962 | -52.92673 | 33926 ft | 472 kts | 256° |
| 2026-04-21 18:59 | 11.42671 | -52.99229 | 33927 ft | 472 kts | 256° |
| 2026-04-21 19:00 | 11.41377 | -53.05788 | 33926 ft | 472 kts | 256° |
| 2026-04-21 19:00 | 11.40082 | -53.12349 | 33925 ft | 472 kts | 256° |
| 2026-04-21 19:01 | 11.38794 | -53.18860 | 33927 ft | 472 kts | 256° |
| 2026-04-21 19:01 | 11.37497 | -53.25413 | 33924 ft | 472 kts | 256° |
| 2026-04-21 19:02 | 11.36197 | -53.31965 | 33925 ft | 472 kts | 256° |
| 2026-04-21 19:02 | 11.34897 | -53.38522 | 33927 ft | 472 kts | 256° |
| 2026-04-21 19:03 | 11.33604 | -53.45036 | 33931 ft | 472 kts | 256° |
| 2026-04-21 19:03 | 11.32301 | -53.51589 | 33935 ft | 472 kts | 256° |
| 2026-04-21 19:04 | 11.30995 | -53.58138 | 33936 ft | 472 kts | 256° |
| 2026-04-21 19:04 | 11.29691 | -53.64681 | 33935 ft | 471 kts | 256° |
| 2026-04-21 19:05 | 11.28385 | -53.71217 | 33937 ft | 471 kts | 256° |
| 2026-04-21 19:05 | 11.27084 | -53.77716 | 33933 ft | 472 kts | 256° |
| 2026-04-21 19:06 | 11.25774 | -53.84264 | 33924 ft | 472 kts | 256° |
| 2026-04-21 19:06 | 11.24463 | -53.90822 | 33914 ft | 473 kts | 256° |
| 2026-04-21 19:07 | 11.23147 | -53.97380 | 33916 ft | 472 kts | 256° |
| 2026-04-21 19:07 | 11.21840 | -54.03885 | 33916 ft | 472 kts | 256° |
| 2026-04-21 19:08 | 11.20523 | -54.10434 | 33916 ft | 472 kts | 256° |
| 2026-04-21 19:08 | 11.19205 | -54.16984 | 33916 ft | 472 kts | 256° |
| 2026-04-21 19:09 | 11.17886 | -54.23531 | 33916 ft | 472 kts | 256° |
| 2026-04-21 19:09 | 11.16574 | -54.30033 | 33919 ft | 472 kts | 256° |
| 2026-04-21 19:10 | 11.15251 | -54.36587 | 33917 ft | 473 kts | 256° |
| 2026-04-21 19:10 | 11.13924 | -54.43147 | 33916 ft | 474 kts | 256° |
| 2026-04-21 19:11 | 11.12591 | -54.49719 | 33917 ft | 474 kts | 256° |
| 2026-04-21 19:11 | 11.11258 | -54.56296 | 33918 ft | 475 kts | 256° |
| 2026-04-21 19:12 | 11.10148 | -54.61767 | 33916 ft | 475 kts | 256° |
| 2026-04-21 19:12 | 11.08593 | -54.69425 | 33917 ft | 476 kts | 256° |
| 2026-04-21 19:13 | 11.07253 | -54.76019 | 33919 ft | 476 kts | 256° |
| 2026-04-21 19:13 | 11.05908 | -54.82616 | 33919 ft | 476 kts | 256° |
| 2026-04-21 19:14 | 11.04574 | -54.89166 | 33917 ft | 476 kts | 256° |
| 2026-04-21 19:14 | 11.03228 | -54.95760 | 33918 ft | 476 kts | 255° |
| 2026-04-21 19:15 | 11.01881 | -55.02353 | 33917 ft | 476 kts | 255° |
| 2026-04-21 19:15 | 11.00532 | -55.08946 | 33916 ft | 476 kts | 255° |
| 2026-04-21 19:16 | 10.99189 | -55.15502 | 33906 ft | 477 kts | 255° |
| 2026-04-21 19:16 | 10.97832 | -55.22109 | 33909 ft | 477 kts | 255° |
| 2026-04-21 19:17 | 10.95799 | -55.32020 | 33917 ft | 477 kts | 255° |
| 2026-04-21 19:17 | 10.94449 | -55.38582 | 33916 ft | 477 kts | 255° |
| 2026-04-21 19:18 | 10.93087 | -55.45196 | 33916 ft | 478 kts | 255° |
| 2026-04-21 19:18 | 10.91723 | -55.51814 | 33919 ft | 478 kts | 255° |
| 2026-04-21 19:19 | 10.90357 | -55.58433 | 33915 ft | 478 kts | 255° |
| 2026-04-21 19:19 | 10.88998 | -55.65012 | 33918 ft | 479 kts | 255° |
| 2026-04-21 19:20 | 10.87628 | -55.71640 | 33918 ft | 479 kts | 255° |
| 2026-04-21 19:20 | 10.86254 | -55.78273 | 33914 ft | 479 kts | 255° |
| 2026-04-21 19:21 | 10.84879 | -55.84913 | 33919 ft | 480 kts | 255° |
| 2026-04-21 19:21 | 10.83499 | -55.91560 | 33917 ft | 480 kts | 255° |
| 2026-04-21 19:22 | 10.82126 | -55.98165 | 33917 ft | 480 kts | 255° |
| 2026-04-21 19:22 | 10.80743 | -56.04816 | 33914 ft | 481 kts | 255° |
| 2026-04-21 19:23 | 10.79358 | -56.11475 | 33918 ft | 481 kts | 255° |
| 2026-04-21 19:23 | 10.77969 | -56.18139 | 33916 ft | 482 kts | 255° |
| 2026-04-21 19:24 | 10.76587 | -56.24764 | 33916 ft | 482 kts | 255° |
| 2026-04-21 19:24 | 10.75192 | -56.31436 | 33916 ft | 482 kts | 255° |
| 2026-04-21 19:25 | 10.73798 | -56.38105 | 33916 ft | 482 kts | 255° |
| 2026-04-21 19:25 | 10.72403 | -56.44772 | 33917 ft | 482 kts | 255° |
| 2026-04-21 19:26 | 10.71007 | -56.51387 | 33920 ft | 481 kts | 253° |
| 2026-04-21 19:26 | 10.68948 | -56.57810 | 33915 ft | 477 kts | 246° |
| 2026-04-21 19:27 | 10.66531 | -56.64098 | 33918 ft | 477 kts | 246° |
| 2026-04-21 19:27 | 10.64124 | -56.70388 | 33916 ft | 477 kts | 246° |
| 2026-04-21 19:28 | 10.61755 | -56.76646 | 33916 ft | 477 kts | 246° |
| 2026-04-21 19:28 | 10.59378 | -56.82951 | 33917 ft | 478 kts | 246° |
| 2026-04-21 19:29 | 10.57002 | -56.89257 | 33916 ft | 478 kts | 246° |
| 2026-04-21 19:29 | 10.54621 | -56.95569 | 33917 ft | 478 kts | 246° |
| 2026-04-21 19:30 | 10.52236 | -57.01881 | 33916 ft | 479 kts | 246° |
| 2026-04-21 19:30 | 10.49867 | -57.08150 | 33917 ft | 478 kts | 246° |
| 2026-04-21 19:31 | 10.47479 | -57.14461 | 33917 ft | 478 kts | 246° |
| 2026-04-21 19:31 | 10.45092 | -57.20772 | 33917 ft | 478 kts | 246° |
| 2026-04-21 19:32 | 10.42702 | -57.27079 | 33914 ft | 478 kts | 246° |
| 2026-04-21 19:32 | 10.40330 | -57.33344 | 33917 ft | 478 kts | 246° |
| 2026-04-21 19:33 | 10.37938 | -57.39650 | 33916 ft | 478 kts | 246° |
| 2026-04-21 19:33 | 10.35541 | -57.45961 | 33918 ft | 479 kts | 246° |
| 2026-04-21 19:34 | 10.33144 | -57.52273 | 33915 ft | 479 kts | 246° |
| 2026-04-21 19:34 | 10.30763 | -57.58541 | 33919 ft | 479 kts | 246° |
| 2026-04-21 19:35 | 10.27155 | -57.68018 | 33917 ft | 479 kts | 246° |
| 2026-04-21 19:36 | 10.24743 | -57.74335 | 33917 ft | 480 kts | 246° |
| 2026-04-21 19:36 | 10.22348 | -57.80666 | 33918 ft | 481 kts | 246° |
| 2026-04-21 19:37 | 10.19952 | -57.86954 | 33918 ft | 481 kts | 245° |
| 2026-04-21 19:37 | 10.17528 | -57.93292 | 33918 ft | 482 kts | 245° |
| 2026-04-21 19:38 | 10.15104 | -57.99640 | 33918 ft | 483 kts | 245° |
| 2026-04-21 19:38 | 10.13088 | -58.04922 | 33916 ft | 483 kts | 245° |
| 2026-04-21 19:39 | 10.10266 | -58.12310 | 33918 ft | 483 kts | 245° |
| 2026-04-21 19:39 | 10.07837 | -58.18662 | 33911 ft | 483 kts | 245° |
| 2026-04-21 19:40 | 10.05408 | -58.25011 | 33904 ft | 482 kts | 245° |
| 2026-04-21 19:40 | 10.02983 | -58.31347 | 33910 ft | 481 kts | 245° |
| 2026-04-21 19:41 | 10.00560 | -58.37671 | 33905 ft | 481 kts | 245° |
| 2026-04-21 19:41 | 9.98153 | -58.43946 | 33905 ft | 480 kts | 245° |
| 2026-04-21 19:42 | 9.95730 | -58.50262 | 33907 ft | 481 kts | 245° |
| 2026-04-21 19:42 | 9.93302 | -58.56589 | 33909 ft | 481 kts | 245° |
| 2026-04-21 19:43 | 9.91283 | -58.61847 | 33906 ft | 482 kts | 245° |
| 2026-04-21 19:43 | 9.88455 | -58.69207 | 33907 ft | 482 kts | 246° |
| 2026-04-21 19:44 | 9.86017 | -58.75546 | 33907 ft | 482 kts | 246° |
| 2026-04-21 19:44 | 9.83989 | -58.80810 | 33906 ft | 482 kts | 245° |
| 2026-04-21 19:45 | 9.81548 | -58.87147 | 33905 ft | 482 kts | 246° |
| 2026-04-21 19:45 | 9.79110 | -58.93480 | 33906 ft | 482 kts | 246° |
| 2026-04-21 19:46 | 9.76670 | -58.99810 | 33905 ft | 482 kts | 246° |
| 2026-04-21 19:46 | 9.74244 | -59.06090 | 33909 ft | 481 kts | 246° |
| 2026-04-21 19:47 | 9.71808 | -59.12406 | 33910 ft | 481 kts | 246° |
| 2026-04-21 19:47 | 9.69373 | -59.18716 | 33910 ft | 480 kts | 246° |
| 2026-04-21 19:48 | 9.66940 | -59.25021 | 33909 ft | 480 kts | 246° |
| 2026-04-21 19:48 | 9.64503 | -59.31317 | 33907 ft | 479 kts | 246° |
| 2026-04-21 19:49 | 9.62084 | -59.37563 | 33909 ft | 479 kts | 246° |
| 2026-04-21 19:49 | 9.59653 | -59.43842 | 33905 ft | 479 kts | 246° |
| 2026-04-21 19:50 | 9.57223 | -59.50115 | 33917 ft | 478 kts | 246° |
| 2026-04-21 19:50 | 9.54810 | -59.56336 | 33918 ft | 478 kts | 246° |
| 2026-04-21 19:51 | 9.52380 | -59.62600 | 33915 ft | 478 kts | 246° |
| 2026-04-21 19:51 | 9.49950 | -59.68869 | 33919 ft | 478 kts | 246° |
| 2026-04-21 19:52 | 9.47518 | -59.75132 | 33917 ft | 478 kts | 246° |
| 2026-04-21 19:52 | 9.45081 | -59.81396 | 33917 ft | 478 kts | 246° |
| 2026-04-21 19:53 | 9.42662 | -59.87615 | 33924 ft | 478 kts | 246° |
| 2026-04-21 19:53 | 9.40225 | -59.93878 | 33926 ft | 478 kts | 246° |
| 2026-04-21 19:54 | 9.37789 | -60.00139 | 33928 ft | 478 kts | 246° |
| 2026-04-21 19:54 | 9.35349 | -60.06402 | 33925 ft | 478 kts | 246° |
| 2026-04-21 19:55 | 9.32924 | -60.12623 | 33925 ft | 478 kts | 246° |
| 2026-04-21 19:55 | 9.30482 | -60.18885 | 33926 ft | 478 kts | 246° |
| 2026-04-21 19:56 | 9.28036 | -60.25153 | 33928 ft | 479 kts | 246° |
| 2026-04-21 19:56 | 9.25588 | -60.31425 | 33925 ft | 479 kts | 246° |
| 2026-04-21 19:57 | 9.23155 | -60.37652 | 33926 ft | 479 kts | 246° |
| 2026-04-21 19:57 | 9.20705 | -60.43924 | 33926 ft | 479 kts | 246° |
| 2026-04-21 19:58 | 9.18249 | -60.50200 | 33926 ft | 480 kts | 246° |
| 2026-04-21 19:58 | 9.15792 | -60.56479 | 33926 ft | 480 kts | 246° |
| 2026-04-21 19:59 | 9.13329 | -60.62767 | 33927 ft | 481 kts | 246° |
| 2026-04-21 19:59 | 9.10881 | -60.69016 | 33926 ft | 481 kts | 246° |
| 2026-04-21 20:00 | 9.08415 | -60.75312 | 33924 ft | 481 kts | 246° |
| 2026-04-21 20:00 | 9.05944 | -60.81610 | 33930 ft | 482 kts | 246° |
| 2026-04-21 20:01 | 9.03468 | -60.87917 | 33926 ft | 482 kts | 246° |
| 2026-04-21 20:01 | 9.01009 | -60.94180 | 33935 ft | 482 kts | 246° |
| 2026-04-21 20:02 | 8.98534 | -61.00480 | 33936 ft | 482 kts | 246° |
| 2026-04-21 20:02 | 8.96055 | -61.06784 | 33936 ft | 482 kts | 246° |
| 2026-04-21 20:03 | 8.93574 | -61.13090 | 33937 ft | 483 kts | 246° |
| 2026-04-21 20:03 | 8.91090 | -61.19401 | 33932 ft | 483 kts | 246° |
| 2026-04-21 20:04 | 8.88621 | -61.25672 | 33935 ft | 483 kts | 246° |
| 2026-04-21 20:04 | 8.86134 | -61.31983 | 33932 ft | 483 kts | 246° |
| 2026-04-21 20:05 | 8.83646 | -61.38295 | 33925 ft | 483 kts | 246° |
| 2026-04-21 20:05 | 8.81156 | -61.44605 | 33925 ft | 483 kts | 246° |
| 2026-04-21 20:06 | 8.78684 | -61.50870 | 33924 ft | 483 kts | 246° |
| 2026-04-21 20:06 | 8.76193 | -61.57180 | 33908 ft | 483 kts | 246° |
| 2026-04-21 20:07 | 8.73699 | -61.63492 | 33909 ft | 484 kts | 246° |
| 2026-04-21 20:07 | 8.71200 | -61.69811 | 33912 ft | 484 kts | 246° |
| 2026-04-21 20:08 | 8.68701 | -61.76131 | 33909 ft | 484 kts | 245° |
| 2026-04-21 20:08 | 8.66213 | -61.82417 | 33907 ft | 485 kts | 245° |
| 2026-04-21 20:09 | 8.63704 | -61.88746 | 33905 ft | 485 kts | 245° |
| 2026-04-21 20:09 | 8.61194 | -61.95085 | 33907 ft | 486 kts | 245° |
| 2026-04-21 20:10 | 8.58682 | -62.01426 | 33909 ft | 486 kts | 245° |
| 2026-04-21 20:10 | 8.56183 | -62.07724 | 33908 ft | 486 kts | 245° |
| 2026-04-21 20:11 | 8.53665 | -62.14068 | 33910 ft | 486 kts | 245° |
| 2026-04-21 20:11 | 8.51147 | -62.20413 | 33901 ft | 487 kts | 245° |
| 2026-04-21 20:12 | 8.48624 | -62.26762 | 33903 ft | 487 kts | 245° |
| 2026-04-21 20:12 | 8.46116 | -62.33071 | 33894 ft | 487 kts | 245° |
| 2026-04-21 20:13 | 8.43592 | -62.39420 | 33902 ft | 487 kts | 245° |
| 2026-04-21 20:13 | 8.41068 | -62.45765 | 33895 ft | 487 kts | 245° |
| 2026-04-21 20:14 | 8.38544 | -62.52105 | 33898 ft | 486 kts | 245° |
| 2026-04-21 20:14 | 8.36019 | -62.58440 | 33901 ft | 486 kts | 245° |
| 2026-04-21 20:15 | 8.33515 | -62.64727 | 33896 ft | 486 kts | 245° |
| 2026-04-21 20:15 | 8.30994 | -62.71050 | 33897 ft | 485 kts | 245° |
| 2026-04-21 20:16 | 8.28617 | -62.77426 | 33894 ft | 486 kts | 251° |
| 2026-04-21 20:16 | 8.26748 | -62.83983 | 33902 ft | 486 kts | 252° |
| 2026-04-21 20:17 | 8.24920 | -62.90509 | 33901 ft | 487 kts | 252° |
| 2026-04-21 20:17 | 8.23056 | -62.97079 | 33902 ft | 487 kts | 251° |
| 2026-04-21 20:18 | 8.21174 | -63.03647 | 33895 ft | 487 kts | 251° |
| 2026-04-21 20:18 | 8.19289 | -63.10211 | 33902 ft | 487 kts | 251° |
| 2026-04-21 20:19 | 8.17414 | -63.16732 | 33893 ft | 487 kts | 251° |
| 2026-04-21 20:19 | 8.15527 | -63.23292 | 33896 ft | 487 kts | 251° |
| 2026-04-21 20:20 | 8.13640 | -63.29850 | 33900 ft | 487 kts | 251° |
| 2026-04-21 20:20 | 8.11752 | -63.36408 | 33897 ft | 487 kts | 251° |
| 2026-04-21 20:21 | 8.09877 | -63.42919 | 33901 ft | 487 kts | 251° |
| 2026-04-21 20:21 | 8.07988 | -63.49471 | 33896 ft | 487 kts | 251° |
| 2026-04-21 20:22 | 8.06097 | -63.56027 | 33897 ft | 486 kts | 251° |
| 2026-04-21 20:22 | 8.03260 | -63.65855 | 33894 ft | 487 kts | 251° |
| 2026-04-21 20:23 | 8.01380 | -63.72365 | 33900 ft | 486 kts | 251° |
| 2026-04-21 20:23 | 7.99484 | -63.78919 | 33892 ft | 487 kts | 251° |
| 2026-04-21 20:24 | 7.97587 | -63.85479 | 33899 ft | 487 kts | 251° |
| 2026-04-21 20:24 | 7.95687 | -63.92037 | 33902 ft | 487 kts | 251° |
| 2026-04-21 20:25 | 7.93799 | -63.98555 | 33901 ft | 487 kts | 251° |
| 2026-04-21 20:25 | 7.91898 | -64.05119 | 33900 ft | 487 kts | 251° |
| 2026-04-21 20:26 | 7.89996 | -64.11680 | 33898 ft | 487 kts | 251° |
| 2026-04-21 20:26 | 7.88093 | -64.18240 | 33893 ft | 487 kts | 251° |
| 2026-04-21 20:27 | 7.86200 | -64.24758 | 33892 ft | 487 kts | 251° |
| 2026-04-21 20:27 | 7.84294 | -64.31315 | 33895 ft | 487 kts | 251° |
| 2026-04-21 20:28 | 7.82389 | -64.37868 | 33888 ft | 487 kts | 251° |
| 2026-04-21 20:28 | 7.80484 | -64.44423 | 33884 ft | 487 kts | 251° |
| 2026-04-21 20:29 | 7.78591 | -64.50930 | 33885 ft | 487 kts | 251° |
| 2026-04-21 20:29 | 7.76681 | -64.57481 | 33889 ft | 487 kts | 251° |
| 2026-04-21 20:30 | 7.74766 | -64.64043 | 33885 ft | 488 kts | 251° |
| 2026-04-21 20:30 | 7.72851 | -64.70615 | 33884 ft | 489 kts | 251° |
| 2026-04-21 20:31 | 7.70944 | -64.77150 | 33902 ft | 489 kts | 251° |
| 2026-04-21 20:31 | 7.69022 | -64.83733 | 33902 ft | 490 kts | 251° |
| 2026-04-21 20:32 | 7.67096 | -64.90327 | 33896 ft | 490 kts | 251° |
| 2026-04-21 20:32 | 7.65170 | -64.96918 | 33896 ft | 490 kts | 251° |
| 2026-04-21 20:33 | 7.63242 | -65.03507 | 33889 ft | 490 kts | 251° |
| 2026-04-21 20:33 | 7.61327 | -65.10052 | 33885 ft | 490 kts | 251° |
| 2026-04-21 20:34 | 7.59398 | -65.16635 | 33891 ft | 490 kts | 251° |
| 2026-04-21 20:34 | 7.57467 | -65.23218 | 33886 ft | 490 kts | 251° |
| 2026-04-21 20:35 | 7.55540 | -65.29795 | 33893 ft | 489 kts | 251° |
| 2026-04-21 20:35 | 7.53623 | -65.36329 | 33892 ft | 489 kts | 251° |
| 2026-04-21 20:36 | 7.51691 | -65.42908 | 33886 ft | 490 kts | 251° |
| 2026-04-21 20:36 | 7.49757 | -65.49489 | 33888 ft | 490 kts | 251° |
| 2026-04-21 20:37 | 7.47824 | -65.56069 | 33884 ft | 490 kts | 251° |
| 2026-04-21 20:37 | 7.45902 | -65.62605 | 33879 ft | 490 kts | 251° |
| 2026-04-21 20:38 | 7.43965 | -65.69186 | 33879 ft | 490 kts | 251° |
| 2026-04-21 20:38 | 7.42026 | -65.75773 | 33880 ft | 490 kts | 251° |
| 2026-04-21 20:39 | 7.40086 | -65.82360 | 33879 ft | 490 kts | 251° |
| 2026-04-21 20:39 | 7.38144 | -65.88945 | 33880 ft | 490 kts | 251° |
| 2026-04-21 20:40 | 7.36215 | -65.95483 | 33880 ft | 490 kts | 251° |
| 2026-04-21 20:40 | 7.34272 | -66.02068 | 33869 ft | 490 kts | 251° |
| 2026-04-21 20:41 | 7.32326 | -66.08655 | 33871 ft | 490 kts | 251° |
| 2026-04-21 20:41 | 7.30380 | -66.15243 | 33873 ft | 491 kts | 251° |
| 2026-04-21 20:42 | 7.28445 | -66.21790 | 33868 ft | 491 kts | 251° |
| 2026-04-21 20:42 | 7.26494 | -66.28386 | 33870 ft | 491 kts | 251° |
| 2026-04-21 20:43 | 7.24540 | -66.34985 | 33859 ft | 492 kts | 251° |
| 2026-04-21 20:43 | 7.22585 | -66.41581 | 33862 ft | 492 kts | 251° |
| 2026-04-21 20:44 | 7.20643 | -66.48138 | 33863 ft | 492 kts | 251° |
| 2026-04-21 20:44 | 7.18687 | -66.54738 | 33860 ft | 492 kts | 251° |
| 2026-04-21 20:45 | 7.16730 | -66.61336 | 33858 ft | 492 kts | 251° |
| 2026-04-21 20:45 | 7.14772 | -66.67935 | 33852 ft | 492 kts | 251° |
| 2026-04-21 20:46 | 7.12825 | -66.74494 | 33851 ft | 492 kts | 251° |
| 2026-04-21 20:46 | 7.10863 | -66.81093 | 33854 ft | 492 kts | 251° |
| 2026-04-21 20:47 | 7.08898 | -66.87697 | 33850 ft | 492 kts | 251° |
| 2026-04-21 20:47 | 7.06933 | -66.94300 | 33850 ft | 492 kts | 251° |
| 2026-04-21 20:48 | 7.04967 | -67.00906 | 33842 ft | 493 kts | 251° |
| 2026-04-21 20:48 | 7.03014 | -67.07469 | 33844 ft | 493 kts | 251° |
| 2026-04-21 20:49 | 7.01045 | -67.14077 | 33842 ft | 493 kts | 251° |
| 2026-04-21 20:49 | 6.99077 | -67.20682 | 33844 ft | 493 kts | 251° |
| 2026-04-21 20:50 | 6.97104 | -67.27293 | 33843 ft | 493 kts | 251° |
| 2026-04-21 20:50 | 6.95146 | -67.33864 | 33842 ft | 493 kts | 251° |
| 2026-04-21 20:51 | 6.93176 | -67.40478 | 33839 ft | 493 kts | 251° |
| 2026-04-21 20:51 | 6.91208 | -67.47090 | 33834 ft | 493 kts | 251° |
| 2026-04-21 20:52 | 6.89236 | -67.53706 | 33835 ft | 494 kts | 251° |
| 2026-04-21 20:52 | 6.87275 | -67.60279 | 33843 ft | 494 kts | 251° |
| 2026-04-21 20:53 | 6.85301 | -67.66895 | 33841 ft | 494 kts | 252° |
| 2026-04-21 20:53 | 6.83327 | -67.73511 | 33843 ft | 494 kts | 251° |
| 2026-04-21 20:54 | 6.81350 | -67.80127 | 33842 ft | 494 kts | 251° |
| 2026-04-21 20:54 | 6.79385 | -67.86700 | 33842 ft | 494 kts | 251° |
| 2026-04-21 20:55 | 6.77409 | -67.93311 | 33799 ft | 491 kts | 251° |
| 2026-04-21 20:55 | 6.76425 | -67.96602 | 33552 ft | 492 kts | 252° |
| 2026-04-21 20:55 | 6.75437 | -67.99901 | 33177 ft | 494 kts | 252° |
| 2026-04-21 20:56 | 6.74444 | -68.03218 | 32821 ft | 496 kts | 252° |
| 2026-04-21 20:56 | 6.73448 | -68.06542 | 32495 ft | 497 kts | 252° |
| 2026-04-21 20:56 | 6.72451 | -68.09870 | 32169 ft | 497 kts | 252° |
| 2026-04-21 20:56 | 6.71468 | -68.13154 | 31831 ft | 498 kts | 252° |
| 2026-04-21 20:57 | 6.70469 | -68.16489 | 31465 ft | 499 kts | 252° |
| 2026-04-21 20:57 | 6.69468 | -68.19831 | 31090 ft | 499 kts | 252° |
| 2026-04-21 20:57 | 6.68464 | -68.23178 | 30683 ft | 500 kts | 252° |
| 2026-04-21 20:57 | 6.67459 | -68.26530 | 30255 ft | 501 kts | 252° |
| 2026-04-21 20:58 | 6.66452 | -68.29885 | 29892 ft | 500 kts | 252° |
| 2026-04-21 20:58 | 6.65448 | -68.33226 | 29622 ft | 497 kts | 252° |
| 2026-04-21 20:58 | 6.64451 | -68.36545 | 29385 ft | 495 kts | 253° |
| 2026-04-21 20:58 | 6.63459 | -68.39846 | 29142 ft | 492 kts | 253° |
| 2026-04-21 20:59 | 6.62474 | -68.43131 | 28876 ft | 489 kts | 253° |
| 2026-04-21 20:59 | 6.61506 | -68.46360 | 28584 ft | 488 kts | 253° |
| 2026-04-21 20:59 | 6.60526 | -68.49627 | 28300 ft | 487 kts | 253° |
| 2026-04-21 20:59 | 6.59548 | -68.52880 | 28031 ft | 485 kts | 253° |
| 2026-04-21 21:00 | 6.58573 | -68.56120 | 27782 ft | 483 kts | 253° |
| 2026-04-21 21:00 | 6.57603 | -68.59346 | 27542 ft | 481 kts | 253° |
| 2026-04-21 21:00 | 6.56637 | -68.62557 | 27292 ft | 479 kts | 253° |
| 2026-04-21 21:00 | 6.55675 | -68.65758 | 27032 ft | 477 kts | 253° |
| 2026-04-21 21:01 | 6.54715 | -68.68946 | 26766 ft | 475 kts | 253° |
| 2026-04-21 21:01 | 6.53759 | -68.72123 | 26500 ft | 474 kts | 253° |
| 2026-04-21 21:01 | 6.52820 | -68.75245 | 26242 ft | 472 kts | 253° |
| 2026-04-21 21:01 | 6.51870 | -68.78399 | 25982 ft | 470 kts | 253° |
| 2026-04-21 21:02 | 6.50925 | -68.81537 | 25743 ft | 468 kts | 253° |
| 2026-04-21 21:02 | 6.49984 | -68.84661 | 25500 ft | 466 kts | 253° |
| 2026-04-21 21:02 | 6.49047 | -68.87771 | 25244 ft | 464 kts | 253° |
| 2026-04-21 21:02 | 6.48111 | -68.90875 | 24980 ft | 463 kts | 253° |
| 2026-04-21 21:03 | 6.47178 | -68.93968 | 24734 ft | 462 kts | 253° |
| 2026-04-21 21:03 | 6.46249 | -68.97050 | 24499 ft | 460 kts | 253° |
| 2026-04-21 21:03 | 6.45334 | -69.00082 | 24256 ft | 458 kts | 253° |
| 2026-04-21 21:03 | 6.44412 | -69.03138 | 24030 ft | 456 kts | 253° |
| 2026-04-21 21:04 | 6.43492 | -69.06186 | 23798 ft | 455 kts | 253° |
| 2026-04-21 21:04 | 6.42577 | -69.09221 | 23563 ft | 453 kts | 253° |
| 2026-04-21 21:04 | 6.41663 | -69.12248 | 23322 ft | 452 kts | 253° |
| 2026-04-21 21:04 | 6.40752 | -69.15267 | 23085 ft | 451 kts | 253° |
| 2026-04-21 21:05 | 6.39843 | -69.18277 | 22862 ft | 449 kts | 253° |
| 2026-04-21 21:05 | 6.38937 | -69.21274 | 22649 ft | 448 kts | 253° |
| 2026-04-21 21:05 | 6.38046 | -69.24223 | 22438 ft | 446 kts | 253° |
| 2026-04-21 21:05 | 6.37146 | -69.27200 | 22221 ft | 444 kts | 253° |
| 2026-04-21 21:06 | 6.36248 | -69.30170 | 22008 ft | 443 kts | 253° |
| 2026-04-21 21:06 | 6.35354 | -69.33126 | 21798 ft | 442 kts | 253° |
| 2026-04-21 21:06 | 6.34463 | -69.36076 | 21577 ft | 441 kts | 253° |
| 2026-04-21 21:06 | 6.33571 | -69.39021 | 21326 ft | 440 kts | 253° |
| 2026-04-21 21:07 | 6.32680 | -69.41965 | 21106 ft | 439 kts | 254° |
| 2026-04-21 21:07 | 6.31794 | -69.44896 | 20908 ft | 438 kts | 254° |
| 2026-04-21 21:07 | 6.30921 | -69.47778 | 20733 ft | 436 kts | 254° |
| 2026-04-21 21:07 | 6.30040 | -69.50687 | 20549 ft | 434 kts | 254° |
| 2026-04-21 21:08 | 6.29162 | -69.53588 | 20355 ft | 433 kts | 254° |
| 2026-04-21 21:08 | 6.28286 | -69.56478 | 20158 ft | 432 kts | 254° |
| 2026-04-21 21:08 | 6.27411 | -69.59364 | 19966 ft | 431 kts | 254° |
| 2026-04-21 21:08 | 6.26540 | -69.62240 | 19782 ft | 429 kts | 254° |
| 2026-04-21 21:09 | 6.25671 | -69.65104 | 19595 ft | 428 kts | 254° |
| 2026-04-21 21:09 | 6.24804 | -69.67965 | 19411 ft | 427 kts | 254° |
| 2026-04-21 21:09 | 6.23941 | -69.70815 | 19229 ft | 426 kts | 254° |
| 2026-04-21 21:09 | 6.23090 | -69.73619 | 19063 ft | 425 kts | 254° |
| 2026-04-21 21:10 | 6.22230 | -69.76454 | 18901 ft | 423 kts | 254° |
| 2026-04-21 21:10 | 6.21373 | -69.79279 | 18734 ft | 422 kts | 254° |
| 2026-04-21 21:10 | 6.20516 | -69.82100 | 18566 ft | 421 kts | 254° |
| 2026-04-21 21:10 | 6.19662 | -69.84913 | 18400 ft | 420 kts | 254° |
| 2026-04-21 21:11 | 6.18811 | -69.87717 | 18232 ft | 419 kts | 254° |
| 2026-04-21 21:11 | 6.17962 | -69.90515 | 18084 ft | 418 kts | 254° |
| 2026-04-21 21:11 | 6.17125 | -69.93270 | 17953 ft | 417 kts | 254° |
| 2026-04-21 21:11 | 6.16279 | -69.96054 | 17793 ft | 416 kts | 254° |
| 2026-04-21 21:12 | 6.15435 | -69.98831 | 17621 ft | 415 kts | 254° |
| 2026-04-21 21:12 | 6.14592 | -70.01606 | 17461 ft | 415 kts | 254° |
| 2026-04-21 21:12 | 6.13752 | -70.04371 | 17302 ft | 414 kts | 254° |
| 2026-04-21 21:12 | 6.12913 | -70.07132 | 17154 ft | 413 kts | 254° |
| 2026-04-21 21:13 | 6.12076 | -70.09887 | 16998 ft | 412 kts | 254° |
| 2026-04-21 21:13 | 6.11243 | -70.12631 | 16866 ft | 409 kts | 254° |
| 2026-04-21 21:13 | 6.10408 | -70.15369 | 16680 ft | 409 kts | 254° |
| 2026-04-21 21:13 | 6.09588 | -70.18066 | 16482 ft | 410 kts | 254° |
| 2026-04-21 21:14 | 6.08760 | -70.20796 | 16339 ft | 408 kts | 254° |
| 2026-04-21 21:14 | 6.07928 | -70.23521 | 16199 ft | 408 kts | 254° |
| 2026-04-21 21:14 | 6.07099 | -70.26241 | 16080 ft | 405 kts | 254° |
| 2026-04-21 21:14 | 6.06272 | -70.28936 | 16063 ft | 402 kts | 253° |
| 2026-04-21 21:15 | 6.05445 | -70.31635 | 16040 ft | 406 kts | 253° |
| 2026-04-21 21:15 | 6.04615 | -70.34341 | 16251 ft | 405 kts | 254° |
| 2026-04-21 21:15 | 6.03790 | -70.37057 | 16573 ft | 409 kts | 254° |
| 2026-04-21 21:15 | 6.02958 | -70.39798 | 16890 ft | 411 kts | 254° |
| 2026-04-21 21:16 | 6.02124 | -70.42548 | 17188 ft | 412 kts | 254° |
| 2026-04-21 21:16 | 6.01296 | -70.45271 | 17450 ft | 415 kts | 254° |
| 2026-04-21 21:16 | 6.00451 | -70.48052 | 17493 ft | 417 kts | 254° |
| 2026-04-21 21:16 | 5.99606 | -70.50826 | 17537 ft | 415 kts | 254° |
| 2026-04-21 21:17 | 5.98760 | -70.53594 | 17530 ft | 414 kts | 254° |
| 2026-04-21 21:17 | 5.97916 | -70.56361 | 17534 ft | 414 kts | 254° |
| 2026-04-21 21:17 | 5.97073 | -70.59126 | 17539 ft | 414 kts | 254° |
| 2026-04-21 21:17 | 5.96231 | -70.61889 | 17548 ft | 413 kts | 254° |
| 2026-04-21 21:18 | 5.95388 | -70.64651 | 17543 ft | 414 kts | 254° |
| 2026-04-21 21:18 | 5.94556 | -70.67378 | 17542 ft | 414 kts | 254° |
| 2026-04-21 21:18 | 5.93711 | -70.70143 | 17544 ft | 414 kts | 254° |
| 2026-04-21 21:18 | 5.92867 | -70.72905 | 17540 ft | 414 kts | 254° |
| 2026-04-21 21:19 | 5.92021 | -70.75670 | 17543 ft | 414 kts | 254° |
| 2026-04-21 21:19 | 5.91175 | -70.78435 | 17561 ft | 414 kts | 254° |
| 2026-04-21 21:19 | 5.90330 | -70.81199 | 17565 ft | 414 kts | 254° |
| 2026-04-21 21:19 | 5.89485 | -70.83962 | 17570 ft | 414 kts | 254° |
| 2026-04-21 21:20 | 5.88641 | -70.86727 | 17567 ft | 414 kts | 254° |
| 2026-04-21 21:20 | 5.87807 | -70.89454 | 17567 ft | 414 kts | 254° |
| 2026-04-21 21:20 | 5.86962 | -70.92218 | 17570 ft | 414 kts | 254° |
| 2026-04-21 21:20 | 5.86117 | -70.94983 | 17569 ft | 415 kts | 254° |
| 2026-04-21 21:21 | 5.85271 | -70.97748 | 17578 ft | 414 kts | 254° |
| 2026-04-21 21:21 | 5.84426 | -71.00510 | 17569 ft | 413 kts | 254° |
| 2026-04-21 21:21 | 5.83582 | -71.03267 | 17565 ft | 414 kts | 254° |
| 2026-04-21 21:21 | 5.82736 | -71.06028 | 17571 ft | 414 kts | 254° |
| 2026-04-21 21:22 | 5.81890 | -71.08790 | 17572 ft | 414 kts | 254° |
| 2026-04-21 21:22 | 5.81056 | -71.11515 | 17567 ft | 414 kts | 254° |
| 2026-04-21 21:22 | 5.80210 | -71.14277 | 17570 ft | 414 kts | 254° |
| 2026-04-21 21:22 | 5.79361 | -71.17044 | 17569 ft | 414 kts | 254° |
| 2026-04-21 21:23 | 5.78514 | -71.19808 | 17563 ft | 414 kts | 254° |
| 2026-04-21 21:23 | 5.77669 | -71.22571 | 17570 ft | 414 kts | 254° |
| 2026-04-21 21:23 | 5.76824 | -71.25333 | 17571 ft | 413 kts | 254° |
| 2026-04-21 21:23 | 5.75977 | -71.28094 | 17580 ft | 414 kts | 254° |
| 2026-04-21 21:24 | 5.75129 | -71.30857 | 17580 ft | 414 kts | 254° |
| 2026-04-21 21:24 | 5.74281 | -71.33621 | 17576 ft | 414 kts | 254° |
| 2026-04-21 21:24 | 5.73446 | -71.36346 | 17576 ft | 413 kts | 254° |
| 2026-04-21 21:24 | 5.72598 | -71.39103 | 17580 ft | 414 kts | 254° |
| 2026-04-21 21:25 | 5.71749 | -71.41863 | 17578 ft | 413 kts | 254° |
| 2026-04-21 21:25 | 5.70902 | -71.44620 | 17579 ft | 414 kts | 254° |
| 2026-04-21 21:25 | 5.70055 | -71.47381 | 17583 ft | 414 kts | 254° |
| 2026-04-21 21:25 | 5.69208 | -71.50144 | 17578 ft | 414 kts | 254° |
| 2026-04-21 21:26 | 5.68359 | -71.52907 | 17574 ft | 414 kts | 254° |
| 2026-04-21 21:26 | 5.67512 | -71.55668 | 17573 ft | 414 kts | 254° |
| 2026-04-21 21:26 | 5.66675 | -71.58394 | 17577 ft | 414 kts | 254° |
| 2026-04-21 21:26 | 5.65828 | -71.61151 | 17578 ft | 414 kts | 254° |
| 2026-04-21 21:27 | 5.64979 | -71.63905 | 17576 ft | 412 kts | 254° |
| 2026-04-21 21:27 | 5.64133 | -71.66654 | 17578 ft | 412 kts | 254° |
| 2026-04-21 21:27 | 5.63289 | -71.69402 | 17579 ft | 412 kts | 254° |
| 2026-04-21 21:27 | 5.62444 | -71.72151 | 17575 ft | 412 kts | 254° |
| 2026-04-21 21:28 | 5.61599 | -71.74901 | 17573 ft | 412 kts | 254° |
| 2026-04-21 21:28 | 5.60765 | -71.77613 | 17571 ft | 413 kts | 254° |
| 2026-04-21 21:28 | 5.59071 | -71.83117 | 17576 ft | 413 kts | 254° |
| 2026-04-21 21:29 | 5.58224 | -71.85869 | 17572 ft | 413 kts | 254° |
| 2026-04-21 21:29 | 5.57376 | -71.88625 | 17570 ft | 413 kts | 254° |
| 2026-04-21 21:29 | 5.56526 | -71.91385 | 17576 ft | 413 kts | 254° |
| 2026-04-21 21:29 | 5.55677 | -71.94141 | 17577 ft | 413 kts | 254° |
| 2026-04-21 21:30 | 5.54827 | -71.96898 | 17578 ft | 413 kts | 254° |
| 2026-04-21 21:30 | 5.53979 | -71.99652 | 17579 ft | 413 kts | 254° |
| 2026-04-21 21:30 | 5.53141 | -72.02371 | 17577 ft | 413 kts | 254° |
| 2026-04-21 21:30 | 5.52294 | -72.05122 | 17579 ft | 412 kts | 253° |
| 2026-04-21 21:31 | 5.51444 | -72.07873 | 17580 ft | 412 kts | 254° |
| 2026-04-21 21:31 | 5.50587 | -72.10633 | 17578 ft | 414 kts | 253° |
| 2026-04-21 21:31 | 5.49734 | -72.13394 | 17570 ft | 414 kts | 254° |
| 2026-04-21 21:31 | 5.48887 | -72.16158 | 17568 ft | 414 kts | 254° |
| 2026-04-21 21:32 | 5.48040 | -72.18919 | 17564 ft | 414 kts | 254° |
| 2026-04-21 21:32 | 5.47192 | -72.21673 | 17570 ft | 413 kts | 253° |
| 2026-04-21 21:32 | 5.46338 | -72.24414 | 17571 ft | 410 kts | 254° |
| 2026-04-21 21:32 | 5.45498 | -72.27116 | 17577 ft | 411 kts | 253° |
| 2026-04-21 21:33 | 5.44653 | -72.29855 | 17566 ft | 411 kts | 254° |
| 2026-04-21 21:33 | 5.43811 | -72.32598 | 17568 ft | 412 kts | 254° |
| 2026-04-21 21:33 | 5.42966 | -72.35346 | 17574 ft | 412 kts | 254° |
| 2026-04-21 21:33 | 5.42119 | -72.38094 | 17568 ft | 413 kts | 253° |
| 2026-04-21 21:34 | 5.41270 | -72.40847 | 17572 ft | 413 kts | 253° |
| 2026-04-21 21:34 | 5.40421 | -72.43601 | 17574 ft | 412 kts | 254° |
| 2026-04-21 21:34 | 5.39572 | -72.46343 | 17565 ft | 410 kts | 253° |
| 2026-04-21 21:34 | 5.38734 | -72.49043 | 17557 ft | 412 kts | 254° |
| 2026-04-21 21:35 | 5.37881 | -72.51804 | 17571 ft | 414 kts | 254° |
| 2026-04-21 21:35 | 5.37031 | -72.54570 | 17564 ft | 416 kts | 253° |
| 2026-04-21 21:35 | 5.36176 | -72.57336 | 17568 ft | 414 kts | 253° |
| 2026-04-21 21:35 | 5.35322 | -72.60095 | 17562 ft | 413 kts | 253° |
| 2026-04-21 21:36 | 5.34472 | -72.62851 | 17576 ft | 413 kts | 253° |
| 2026-04-21 21:36 | 5.33623 | -72.65594 | 17582 ft | 412 kts | 253° |
| 2026-04-21 21:36 | 5.32776 | -72.68339 | 17583 ft | 413 kts | 254° |
| 2026-04-21 21:36 | 5.31932 | -72.71056 | 17580 ft | 414 kts | 253° |
| 2026-04-21 21:37 | 5.31077 | -72.73814 | 17585 ft | 415 kts | 253° |
| 2026-04-21 21:37 | 5.30222 | -72.76575 | 17594 ft | 414 kts | 253° |
| 2026-04-21 21:37 | 5.29368 | -72.79334 | 17593 ft | 414 kts | 253° |
| 2026-04-21 21:37 | 5.28514 | -72.82091 | 17602 ft | 413 kts | 253° |
| 2026-04-21 21:38 | 5.27662 | -72.84842 | 17603 ft | 413 kts | 253° |
| 2026-04-21 21:38 | 5.26811 | -72.87590 | 17612 ft | 412 kts | 253° |
| 2026-04-21 21:38 | 5.25960 | -72.90333 | 17621 ft | 412 kts | 253° |
| 2026-04-21 21:38 | 5.25110 | -72.93076 | 17629 ft | 412 kts | 253° |
| 2026-04-21 21:39 | 5.24271 | -72.95784 | 17639 ft | 412 kts | 253° |
| 2026-04-21 21:39 | 5.23419 | -72.98531 | 17639 ft | 413 kts | 253° |
| 2026-04-21 21:39 | 5.22567 | -73.01279 | 17652 ft | 412 kts | 253° |
| 2026-04-21 21:39 | 5.21715 | -73.04023 | 17682 ft | 412 kts | 253° |
| 2026-04-21 21:40 | 5.20864 | -73.06772 | 17648 ft | 413 kts | 253° |
| 2026-04-21 21:40 | 5.20011 | -73.09525 | 17673 ft | 413 kts | 253° |
| 2026-04-21 21:40 | 5.19156 | -73.12280 | 17680 ft | 413 kts | 253° |
| 2026-04-21 21:40 | 5.18302 | -73.15031 | 17692 ft | 413 kts | 253° |
| 2026-04-21 21:41 | 5.17460 | -73.17742 | 17693 ft | 413 kts | 253° |
| 2026-04-21 21:41 | 5.16608 | -73.20489 | 17706 ft | 412 kts | 253° |
| 2026-04-21 21:41 | 5.15755 | -73.23236 | 17716 ft | 412 kts | 253° |
| 2026-04-21 21:41 | 5.14904 | -73.25981 | 17748 ft | 412 kts | 253° |
| 2026-04-21 21:42 | 5.14052 | -73.28723 | 17731 ft | 411 kts | 254° |
| 2026-04-21 21:42 | 5.13462 | -73.31494 | 17760 ft | 407 kts | 266° |
| 2026-04-21 21:42 | 5.13533 | -73.34329 | 17779 ft | 409 kts | 278° |
| 2026-04-21 21:42 | 5.14184 | -73.37094 | 17784 ft | 408 kts | 290° |
| 2026-04-21 21:43 | 5.15167 | -73.39721 | 17788 ft | 409 kts | 290° |
| 2026-04-21 21:43 | 5.15962 | -73.42467 | 17801 ft | 411 kts | 282° |
| 2026-04-21 21:43 | 5.16377 | -73.45313 | 17807 ft | 414 kts | 275° |
| 2026-04-21 21:43 | 5.16587 | -73.48196 | 17820 ft | 415 kts | 275° |
| 2026-04-21 21:44 | 5.16797 | -73.51082 | 17822 ft | 415 kts | 275° |
| 2026-04-21 21:44 | 5.17015 | -73.53969 | 17825 ft | 415 kts | 275° |
| 2026-04-21 21:44 | 5.17239 | -73.56848 | 17834 ft | 414 kts | 275° |
| 2026-04-21 21:44 | 5.17467 | -73.59719 | 17847 ft | 413 kts | 275° |
| 2026-04-21 21:45 | 5.17695 | -73.62548 | 17847 ft | 413 kts | 275° |
| 2026-04-21 21:45 | 5.17929 | -73.65407 | 17852 ft | 410 kts | 275° |
| 2026-04-21 21:45 | 5.18163 | -73.68262 | 17846 ft | 412 kts | 275° |
| 2026-04-21 21:45 | 5.18397 | -73.71129 | 17852 ft | 412 kts | 275° |
| 2026-04-21 21:46 | 5.18630 | -73.73987 | 17844 ft | 411 kts | 275° |
| 2026-04-21 21:46 | 5.18858 | -73.76843 | 17853 ft | 411 kts | 275° |
| 2026-04-21 21:46 | 5.19091 | -73.79696 | 17856 ft | 410 kts | 275° |
| 2026-04-21 21:46 | 5.19323 | -73.82546 | 17862 ft | 409 kts | 275° |
| 2026-04-21 21:47 | 5.19555 | -73.85353 | 17878 ft | 410 kts | 275° |
| 2026-04-21 21:47 | 5.19792 | -73.88202 | 17867 ft | 410 kts | 275° |
| 2026-04-21 21:47 | 5.20019 | -73.91050 | 17876 ft | 409 kts | 275° |
| 2026-04-21 21:47 | 5.20247 | -73.93891 | 17880 ft | 409 kts | 275° |
| 2026-04-21 21:48 | 5.20474 | -73.96737 | 17884 ft | 410 kts | 275° |
| 2026-04-21 21:48 | 5.20711 | -73.99598 | 17895 ft | 413 kts | 275° |
| 2026-04-21 21:48 | 5.20947 | -74.02470 | 17890 ft | 414 kts | 275° |
| 2026-04-21 21:48 | 5.21181 | -74.05348 | 17884 ft | 414 kts | 275° |
| 2026-04-21 21:49 | 5.21410 | -74.08183 | 17887 ft | 414 kts | 275° |
| 2026-04-21 21:49 | 5.21642 | -74.11059 | 17894 ft | 413 kts | 275° |
| 2026-04-21 21:49 | 5.21872 | -74.13925 | 17916 ft | 410 kts | 275° |
| 2026-04-21 21:49 | 5.22098 | -74.16766 | 17907 ft | 403 kts | 275° |
| 2026-04-21 21:50 | 5.22319 | -74.19513 | 17880 ft | 386 kts | 275° |
| 2026-04-21 21:50 | 5.22532 | -74.22133 | 17870 ft | 366 kts | 275° |
| 2026-04-21 21:50 | 5.22727 | -74.24556 | 17832 ft | 334 kts | 275° |
| 2026-04-21 21:50 | 5.22912 | -74.26866 | 17855 ft | 331 kts | 275° |
| 2026-04-21 21:51 | 5.23097 | -74.29164 | 17840 ft | 330 kts | 275° |
| 2026-04-21 21:51 | 5.23279 | -74.31426 | 17832 ft | 329 kts | 275° |
| 2026-04-21 21:51 | 5.23461 | -74.33711 | 17823 ft | 328 kts | 274° |
| 2026-04-21 21:51 | 5.23640 | -74.35990 | 17819 ft | 328 kts | 275° |
| 2026-04-21 21:52 | 5.23820 | -74.38274 | 17807 ft | 328 kts | 275° |
| 2026-04-21 21:52 | 5.24000 | -74.40557 | 17799 ft | 329 kts | 275° |
| 2026-04-21 21:52 | 5.24181 | -74.42844 | 17785 ft | 329 kts | 275° |
| 2026-04-21 21:52 | 5.24355 | -74.45130 | 17756 ft | 327 kts | 272° |
| 2026-04-21 21:53 | 5.24102 | -74.47392 | 17736 ft | 329 kts | 252° |
| 2026-04-21 21:53 | 5.23288 | -74.49537 | 17740 ft | 329 kts | 248° |
| 2026-04-21 21:53 | 5.22444 | -74.51645 | 17723 ft | 331 kts | 249° |
| 2026-04-21 21:53 | 5.21611 | -74.53802 | 17712 ft | 331 kts | 250° |
| 2026-04-21 21:54 | 5.20792 | -74.55966 | 17710 ft | 332 kts | 250° |
| 2026-04-21 21:54 | 5.19972 | -74.58135 | 17706 ft | 333 kts | 250° |
| 2026-04-21 21:54 | 5.18948 | -74.60190 | 17676 ft | 330 kts | 231° |
| 2026-04-21 21:54 | 5.17341 | -74.61804 | 17693 ft | 327 kts | 223° |
| 2026-04-21 21:55 | 5.15650 | -74.63340 | 17675 ft | 329 kts | 223° |
| 2026-04-21 21:55 | 5.13978 | -74.64879 | 17677 ft | 331 kts | 223° |
| 2026-04-21 21:55 | 5.12281 | -74.66464 | 17672 ft | 335 kts | 224° |
| 2026-04-21 21:55 | 5.10581 | -74.68074 | 17681 ft | 336 kts | 224° |
| 2026-04-21 21:56 | 5.08871 | -74.69683 | 17632 ft | 335 kts | 221° |
| 2026-04-21 21:56 | 5.06909 | -74.70925 | 17658 ft | 336 kts | 200° |
| 2026-04-21 21:56 | 5.04681 | -74.71610 | 17651 ft | 335 kts | 197° |
| 2026-04-21 21:56 | 5.02442 | -74.72268 | 17677 ft | 334 kts | 197° |
| 2026-04-21 21:57 | 5.00210 | -74.72888 | 17622 ft | 331 kts | 189° |
| 2026-04-21 21:57 | 4.97935 | -74.72779 | 17657 ft | 332 kts | 164° |
| 2026-04-21 21:57 | 4.95881 | -74.71762 | 17646 ft | 339 kts | 142° |
| 2026-04-21 21:57 | 4.94298 | -74.69996 | 17418 ft | 345 kts | 119° |
| 2026-04-21 21:58 | 4.93491 | -74.67760 | 17182 ft | 340 kts | 98° |
| 2026-04-21 21:58 | 4.93272 | -74.65417 | 16970 ft | 335 kts | 94° |
| 2026-04-21 21:58 | 4.93110 | -74.63090 | 16753 ft | 334 kts | 94° |
| 2026-04-21 21:58 | 4.92940 | -74.60778 | 16540 ft | 332 kts | 94° |
| 2026-04-21 21:59 | 4.92751 | -74.58482 | 16337 ft | 329 kts | 94° |
| 2026-04-21 21:59 | 4.92556 | -74.56202 | 16136 ft | 327 kts | 95° |
| 2026-04-21 21:59 | 4.92357 | -74.53936 | 15911 ft | 326 kts | 95° |
| 2026-04-21 21:59 | 4.92163 | -74.51711 | 15765 ft | 323 kts | 95° |
| 2026-04-21 22:00 | 4.91968 | -74.49468 | 15543 ft | 323 kts | 95° |
| 2026-04-21 22:00 | 4.91772 | -74.47226 | 15367 ft | 321 kts | 95° |
| 2026-04-21 22:00 | 4.91581 | -74.45058 | 15136 ft | 305 kts | 95° |
| 2026-04-21 22:00 | 4.91260 | -74.42988 | 14993 ft | 302 kts | 110° |
| 2026-04-21 22:01 | 4.90147 | -74.41218 | 14822 ft | 303 kts | 136° |
| 2026-04-21 22:01 | 4.88436 | -74.40023 | 14649 ft | 299 kts | 153° |
| 2026-04-21 22:01 | 4.86585 | -74.39084 | 14469 ft | 298 kts | 154° |
| 2026-04-21 22:01 | 4.84757 | -74.38164 | 14319 ft | 297 kts | 154° |
| 2026-04-21 22:02 | 4.82910 | -74.37227 | 14119 ft | 298 kts | 153° |
| 2026-04-21 22:02 | 4.81062 | -74.36280 | 13926 ft | 298 kts | 153° |
| 2026-04-21 22:02 | 4.79228 | -74.35335 | 13768 ft | 294 kts | 153° |
| 2026-04-21 22:02 | 4.77448 | -74.34415 | 13684 ft | 281 kts | 153° |
| 2026-04-21 22:03 | 4.76087 | -74.33652 | 13638 ft | 273 kts | 149° |
| 2026-04-21 22:03 | 4.74447 | -74.32654 | 13640 ft | 277 kts | 149° |
| 2026-04-21 22:03 | 4.72823 | -74.31663 | 13641 ft | 275 kts | 149° |
| 2026-04-21 22:03 | 4.71227 | -74.30697 | 13645 ft | 260 kts | 149° |
| 2026-04-21 22:04 | 4.69731 | -74.29795 | 13620 ft | 242 kts | 149° |
| 2026-04-21 22:04 | 4.68329 | -74.28948 | 13593 ft | 231 kts | 147° |
| 2026-04-21 22:04 | 4.67078 | -74.27951 | 13666 ft | 232 kts | 137° |
| 2026-04-21 22:04 | 4.65895 | -74.26837 | 13658 ft | 233 kts | 137° |
| 2026-04-21 22:05 | 4.64712 | -74.25728 | 13647 ft | 232 kts | 137° |
| 2026-04-21 22:05 | 4.63529 | -74.24630 | 13633 ft | 231 kts | 136° |
| 2026-04-21 22:05 | 4.62505 | -74.23424 | 13480 ft | 235 kts | 124° |
| 2026-04-21 22:05 | 4.61588 | -74.22048 | 13139 ft | 237 kts | 123° |
| 2026-04-21 22:06 | 4.60688 | -74.20691 | 12830 ft | 231 kts | 124° |
| 2026-04-21 22:06 | 4.59790 | -74.19368 | 12499 ft | 227 kts | 124° |
| 2026-04-21 22:06 | 4.58917 | -74.18088 | 12196 ft | 218 kts | 124° |
| 2026-04-21 22:06 | 4.58113 | -74.16834 | 11902 ft | 210 kts | 115° |
| 2026-04-21 22:07 | 4.57650 | -74.15449 | 11654 ft | 209 kts | 99° |
| 2026-04-21 22:07 | 4.57579 | -74.14039 | 11384 ft | 197 kts | 83° |
| 2026-04-21 22:07 | 4.57848 | -74.12778 | 11140 ft | 178 kts | 68° |
| 2026-04-21 22:07 | 4.58362 | -74.11711 | 10905 ft | 167 kts | 55° |
| 2026-04-21 22:08 | 4.59081 | -74.10813 | 10703 ft | 165 kts | 42° |
| 2026-04-21 22:08 | 4.59977 | -74.10098 | 10503 ft | 165 kts | 29° |
| 2026-04-21 22:08 | 4.61002 | -74.09594 | 10284 ft | 164 kts | 18° |
| 2026-04-21 22:08 | 4.62085 | -74.09265 | 10089 ft | 162 kts | 13° |
| 2026-04-21 22:09 | 4.63172 | -74.08970 | 9869 ft | 161 kts | 12° |
| 2026-04-21 22:09 | 4.64257 | -74.08702 | 9650 ft | 160 kts | 8° |
| 2026-04-21 22:09 | 4.65337 | -74.08667 | 9438 ft | 157 kts | 346° |
| 2026-04-21 22:09 | 4.66348 | -74.09054 | 9256 ft | 156 kts | 329° |
| 2026-04-21 22:10 | 4.67198 | -74.09717 | 9083 ft | 154 kts | 311° |
| 2026-04-21 22:10 | 4.67864 | -74.10571 | 8903 ft | 158 kts | 305° |
| 2026-04-21 22:10 | 4.68514 | -74.11463 | 8688 ft | 159 kts | 306° |
| 2026-04-21 22:10 | 4.69177 | -74.12346 | 8469 ft | 158 kts | 306° |
| 2026-04-21 22:11 | 4.69819 | -74.13210 | 8371 ft | 145 kts | 308° |
| 2026-04-21 22:11 | 4.70355 | -74.13906 | 8370 ft | 104 kts | 307° |
| 2026-04-21 22:11 | 4.70699 | -74.14360 | 8371 ft | 67 kts | 307° |
| 2026-04-21 22:11 | 4.70944 | -74.14685 | 8370 ft | 50 kts | 307° |
| 2026-04-21 22:12 | 4.71120 | -74.14915 | 8368 ft | 33 kts | 307° |
| 2026-04-21 22:12 | 4.71238 | -74.15072 | 8369 ft | 28 kts | 307° |
| 2026-04-21 22:12 | 4.71295 | -74.15249 | 8371 ft | 28 kts | 256° |
| 2026-04-21 22:12 | 4.71195 | -74.15409 | 8371 ft | 28 kts | 216° |
| 2026-04-21 22:13 | 4.71041 | -74.15523 | 8371 ft | 27 kts | 217° |
| 2026-04-21 22:13 | 4.70890 | -74.15637 | 8371 ft | 27 kts | 217° |
| 2026-04-21 22:13 | 4.70739 | -74.15751 | 8370 ft | 27 kts | 217° |
| 2026-04-21 22:13 | 4.70585 | -74.15841 | 8371 ft | 17 kts | 206° |
| 2026-04-21 22:14 | 4.70529 | -74.15860 | 8370 ft | 0 kts | 193° |